Observation data for Lake McClellan 2NW on 02/14/2020      Previous  Date  Next       Current Mesonet Observations  Soil Data  Daily Summary Page  Observations in Plain Language
KMC5 140600Z 09006KT M06/M11 A303 RMK A01 T10591113  RH  066%=      5-min Rain = 0
KMC5 140601Z 08007KT M06/M11 A303 RMK A01 T10591113  RH  066%=      5-min Rain = 0
KMC5 140602Z 09007KT M06/M11 A303 RMK A01 T10601114  RH  066%=      5-min Rain = 0
KMC5 140603Z 09007KT M06/M11 A303 RMK A01 T10601114  RH  066%=      5-min Rain = 0
KMC5 140604Z 09007KT M06/M11 A303 RMK A01 T10601114  RH  065%=      5-min Rain = 0
KMC5 140605Z 09006KT M06/M12 A303 RMK A01 T10601115  RH  065%=      5-min Rain = 0
KMC5 140606Z 09007KT M06/M11 A303 RMK A01 T10601114  RH  066%=      5-min Rain = 0
KMC5 140607Z 08006KT M06/M11 A303 RMK A01 T10601113  RH  066%=      5-min Rain = 0
KMC5 140608Z 08006KT M06/M11 A303 RMK A01 T10601112  RH  067%=      5-min Rain = 0
KMC5 140609Z 08007KT M06/M11 A303 RMK A01 T10601113  RH  066%=      5-min Rain = 0
KMC5 140610Z 08008KT M06/M11 A303 RMK A01 T10601114  RH  065%=      5-min Rain = 0
KMC5 140611Z 08007KT M06/M11 A303 RMK A01 T10601114  RH  065%=      5-min Rain = 0
KMC5 140612Z 08006KT M06/M11 A303 RMK A01 T10601114  RH  066%=      5-min Rain = 0
KMC5 140613Z 08007KT M06/M11 A303 RMK A01 T10601113  RH  066%=      5-min Rain = 0
KMC5 140614Z 08007KT M06/M11 A303 RMK A01 T10601114  RH  066%=      5-min Rain = 0
KMC5 140615Z 08007KT M06/M11 A303 RMK A01 T10601113  RH  066%=      5-min Rain = 0
KMC5 140616Z 08007KT M06/M11 A303 RMK A01 T10591113  RH  066%=      5-min Rain = 0
KMC5 140617Z 09007KT M06/M11 A303 RMK A01 T10591113  RH  066%=      5-min Rain = 0
KMC5 140618Z 08008KT M06/M11 A303 RMK A01 T10591114  RH  065%=      5-min Rain = 0
KMC5 140619Z 08007KT M06/M12 A303 RMK A01 T10601116  RH  065%=      5-min Rain = 0
KMC5 140620Z 08008KT M06/M12 A3031 RMK A01 T10601115  RH  065%=      5-min Rain = 0
KMC5 140621Z 08007KT M06/M12 A3031 RMK A01 T10601115  RH  065%=      5-min Rain = 0
KMC5 140622Z 08007KT M06/M12 A3031 RMK A01 T10601115  RH  065%=      5-min Rain = 0
KMC5 140623Z 09007KT M06/M11 A3031 RMK A01 T10611114  RH  066%=      5-min Rain = 0
KMC5 140624Z 09009KT M06/M12 A3031 RMK A01 T10611115  RH  066%=      5-min Rain = 0
KMC5 140625Z 09008KT M06/M12 A3031 RMK A01 T10611116  RH  065%=      5-min Rain = 0
KMC5 140626Z 09009KT M06/M12 A3031 RMK A01 T10621116  RH  065%=      5-min Rain = 0
KMC5 140627Z 09008KT M06/M12 A3031 RMK A01 T10621116  RH  065%=      5-min Rain = 0
KMC5 140628Z 09007KT M06/M12 A3031 RMK A01 T10621116  RH  066%=      5-min Rain = 0
KMC5 140629Z 09007KT M06/M12 A3031 RMK A01 T10621115  RH  066%=      5-min Rain = 0
KMC5 140630Z 09007KT M06/M12 A3031 RMK A01 T10631115  RH  066%=      5-min Rain = 0
KMC5 140631Z 10008KT M06/M12 A3031 RMK A01 T10631115  RH  067%=      5-min Rain = 0
KMC5 140632Z 09008KT M06/M12 A3031 RMK A01 T10641116  RH  067%=      5-min Rain = 0
KMC5 140633Z 10007KT M06/M12 A3031 RMK A01 T10641116  RH  067%=      5-min Rain = 0
KMC5 140634Z 10008KT M06/M12 A3031 RMK A01 T10641116  RH  067%=      5-min Rain = 0
KMC5 140635Z 09007KT M06/M12 A3031 RMK A01 T10641116  RH  067%=      5-min Rain = 0
KMC5 140636Z 09008KT M07/M12 A3031 RMK A01 T10651116  RH  067%=      5-min Rain = 0
KMC5 140637Z 09008KT M07/M12 A3031 RMK A01 T10651116  RH  067%=      5-min Rain = 0
KMC5 140638Z 09007KT M07/M12 A3031 RMK A01 T10651116  RH  067%=      5-min Rain = 0
KMC5 140639Z 09007KT M07/M12 A3031 RMK A01 T10651115  RH  068%=      5-min Rain = 0
KMC5 140640Z 09007KT M07/M12 A3031 RMK A01 T10661115  RH  068%=      5-min Rain = 0
KMC5 140641Z 09007KT M07/M12 A3031 RMK A01 T10661115  RH  068%=      5-min Rain = 0
KMC5 140642Z 09007KT M07/M12 A3031 RMK A01 T10661115  RH  068%=      5-min Rain = 0
KMC5 140643Z 09006KT M07/M12 A3031 RMK A01 T10671116  RH  068%=      5-min Rain = 0
KMC5 140644Z 08006KT M07/M12 A3031 RMK A01 T10671116  RH  068%=      5-min Rain = 0
KMC5 140645Z 09007KT M07/M12 A3031 RMK A01 T10671116  RH  068%=      5-min Rain = 0
KMC5 140646Z 09007KT M07/M12 A3031 RMK A01 T10671116  RH  068%=      5-min Rain = 0
KMC5 140647Z 09007KT M07/M12 A3032 RMK A01 T10671117  RH  068%=      5-min Rain = 0
KMC5 140648Z 09007KT M07/M12 A3032 RMK A01 T10671117  RH  068%=      5-min Rain = 0
KMC5 140649Z 09007KT M07/M12 A3032 RMK A01 T10671116  RH  068%=      5-min Rain = 0
KMC5 140650Z 09006KT M07/M12 A3032 RMK A01 T10681116  RH  069%=      5-min Rain = 0
KMC5 140651Z 09006KT M07/M12 A3032 RMK A01 T10691115  RH  069%=      5-min Rain = 0
KMC5 140652Z 09007KT M07/M12 A3032 RMK A01 T10691115  RH  070%=      5-min Rain = 0
KMC5 140653Z 09007KT M07/M12 A3032 RMK A01 T10691115  RH  070%=      5-min Rain = 0
KMC5 140654Z 09008KT M07/M12 A3032 RMK A01 T10701116  RH  070%=      5-min Rain = 0
KMC5 140655Z 09007KT M07/M12 A3032 RMK A01 T10701116  RH  070%=      5-min Rain = 0
KMC5 140656Z 09007KT M07/M12 A3032 RMK A01 T10701115  RH  070%=      5-min Rain = 0
KMC5 140657Z 09007KT M07/M12 A3032 RMK A01 T10701116  RH  070%=      5-min Rain = 0
KMC5 140658Z 09007KT M07/M12 A3032 RMK A01 T10691116  RH  069%=      5-min Rain = 0
KMC5 140659Z 09007KT M07/M12 A3032 RMK A01 T10691116  RH  070%=      5-min Rain = 0
KMC5 140700Z 09008KT M07/M12 A3032 RMK A01 T10691116  RH  069%=      5-min Rain = 0
KMC5 140701Z 09008KT M07/M12 A3032 RMK A01 T10701116  RH  069%=      5-min Rain = 0
KMC5 140702Z 09008KT M07/M12 A3032 RMK A01 T10691117  RH  069%=      5-min Rain = 0
KMC5 140703Z 09008KT M07/M12 A3032 RMK A01 T10691118  RH  068%=      5-min Rain = 0
KMC5 140704Z 09008KT M07/M12 A3032 RMK A01 T10701119  RH  068%=      5-min Rain = 0
KMC5 140705Z 09007KT M07/M12 A3032 RMK A01 T10701119  RH  068%=      5-min Rain = 0
KMC5 140706Z 09008KT M07/M12 A3031 RMK A01 T10701119  RH  068%=      5-min Rain = 0
KMC5 140707Z 09008KT M07/M12 A3031 RMK A01 T10701119  RH  068%=      5-min Rain = 0
KMC5 140708Z 09008KT M07/M12 A3031 RMK A01 T10711119  RH  069%=      5-min Rain = 0
KMC5 140709Z 09008KT M07/M12 A3032 RMK A01 T10711119  RH  069%=      5-min Rain = 0
KMC5 140710Z 09008KT M07/M12 A3032 RMK A01 T10721119  RH  069%=      5-min Rain = 0
KMC5 140711Z 09007KT M07/M12 A3032 RMK A01 T10721119  RH  069%=      5-min Rain = 0
KMC5 140712Z 09008KT M07/M12 A3031 RMK A01 T10721118  RH  070%=      5-min Rain = 0
KMC5 140713Z 09007KT M07/M12 A3031 RMK A01 T10731119  RH  070%=      5-min Rain = 0
KMC5 140714Z 09007KT M07/M12 A3031 RMK A01 T10731119  RH  070%=      5-min Rain = 0
KMC5 140715Z 09007KT M07/M12 A3031 RMK A01 T10731119  RH  070%=      5-min Rain = 0
KMC5 140716Z 09007KT M07/M12 A3031 RMK A01 T10731119  RH  070%=      5-min Rain = 0
KMC5 140717Z 09007KT M07/M12 A3031 RMK A01 T10731119  RH  070%=      5-min Rain = 0
KMC5 140718Z 09007KT M07/M12 A3031 RMK A01 T10741119  RH  070%=      5-min Rain = 0
KMC5 140719Z 09007KT M07/M12 A3031 RMK A01 T10741119  RH  070%=      5-min Rain = 0
KMC5 140720Z 09007KT M07/M12 A3031 RMK A01 T10741119  RH  070%=      5-min Rain = 0
KMC5 140721Z 09007KT M07/M12 A3031 RMK A01 T10741119  RH  070%=      5-min Rain = 0
KMC5 140722Z 09007KT M08/M12 A3031 RMK A01 T10751119  RH  070%=      5-min Rain = 0
KMC5 140723Z 09007KT M08/M12 A3031 RMK A01 T10751119  RH  071%=      5-min Rain = 0
KMC5 140724Z 09006KT M08/M12 A3031 RMK A01 T10751119  RH  071%=      5-min Rain = 0
KMC5 140725Z 09007KT M08/M12 A3031 RMK A01 T10751119  RH  071%=      5-min Rain = 0
KMC5 140726Z 09006KT M08/M12 A3031 RMK A01 T10751119  RH  071%=      5-min Rain = 0
KMC5 140727Z 09006KT M08/M12 A3031 RMK A01 T10751119  RH  071%=      5-min Rain = 0
KMC5 140728Z 09006KT M08/M12 A3031 RMK A01 T10751119  RH  071%=      5-min Rain = 0
KMC5 140729Z 09006KT M08/M12 A3031 RMK A01 T10751119  RH  071%=      5-min Rain = 0
KMC5 140730Z 09006KT M08/M12 A3031 RMK A01 T10751119  RH  070%=      5-min Rain = 0
KMC5 140731Z 09006KT M08/M12 A3031 RMK A01 T10751120  RH  070%=      5-min Rain = 0
KMC5 140732Z 10006KT M08/M12 A3031 RMK A01 T10751119  RH  071%=      5-min Rain = 0
KMC5 140733Z 10006KT M08/M12 A3031 RMK A01 T10761120  RH  071%=      5-min Rain = 0
KMC5 140734Z 10007KT M08/M12 A3031 RMK A01 T10761119  RH  071%=      5-min Rain = 0
KMC5 140735Z 10007KT M08/M12 A3031 RMK A01 T10761120  RH  071%=      5-min Rain = 0
KMC5 140736Z 10007KT M08/M12 A3032 RMK A01 T10771120  RH  071%=      5-min Rain = 0
KMC5 140737Z 10007KT M08/M12 A3032 RMK A01 T10771119  RH  072%=      5-min Rain = 0
KMC5 140738Z 10007KT M08/M12 A3032 RMK A01 T10781120  RH  072%=      5-min Rain = 0
KMC5 140739Z 11007KT M08/M12 A3032 RMK A01 T10781119  RH  072%=      5-min Rain = 0
KMC5 140740Z 11007KT M08/M12 A3032 RMK A01 T10781119  RH  072%=      5-min Rain = 0
KMC5 140741Z 11007KT M08/M12 A3032 RMK A01 T10781119  RH  072%=      5-min Rain = 0
KMC5 140742Z 11006KT M08/M12 A3032 RMK A01 T10781119  RH  073%=      5-min Rain = 0
KMC5 140743Z 11006KT M08/M12 A3032 RMK A01 T10781119  RH  073%=      5-min Rain = 0
KMC5 140744Z 11006KT M08/M12 A3032 RMK A01 T10781119  RH  073%=      5-min Rain = 0
KMC5 140745Z 11006KT M08/M12 A3032 RMK A01 T10791119  RH  073%=      5-min Rain = 0
KMC5 140746Z 11006KT M08/M12 A3032 RMK A01 T10791118  RH  073%=      5-min Rain = 0
KMC5 140747Z 11006KT M08/M12 A3032 RMK A01 T10791118  RH  073%=      5-min Rain = 0
KMC5 140748Z 11006KT M08/M12 A3032 RMK A01 T10791118  RH  073%=      5-min Rain = 0
KMC5 140749Z 11006KT M08/M12 A3032 RMK A01 T10791118  RH  074%=      5-min Rain = 0
KMC5 140750Z 11006KT M08/M12 A3032 RMK A01 T10791118  RH  074%=      5-min Rain = 0
KMC5 140751Z 11005KT M08/M12 A3032 RMK A01 T10801118  RH  074%=      5-min Rain = 0
KMC5 140752Z 11006KT M08/M12 A3032 RMK A01 T10811119  RH  074%=      5-min Rain = 0
KMC5 140753Z 11006KT M08/M12 A3032 RMK A01 T10811118  RH  075%=      5-min Rain = 0
KMC5 140754Z 11005KT M08/M12 A3032 RMK A01 T10821118  RH  075%=      5-min Rain = 0
KMC5 140755Z 11005KT M08/M12 A3032 RMK A01 T10821118  RH  076%=      5-min Rain = 0
KMC5 140756Z 11004KT M08/M12 A3032 RMK A01 T10821117  RH  076%=      5-min Rain = 0
KMC5 140757Z 11004KT M08/M12 A3032 RMK A01 T10821117  RH  076%=      5-min Rain = 0
KMC5 140758Z 11004KT M08/M12 A3032 RMK A01 T10821116  RH  076%=      5-min Rain = 0
KMC5 140759Z 11004KT M08/M12 A3032 RMK A01 T10821117  RH  076%=      5-min Rain = 0
KMC5 140800Z 11004KT M08/M12 A3032 RMK A01 T10821116  RH  076%=      5-min Rain = 0
KMC5 140801Z 11004KT M08/M12 A3032 RMK A01 T10831116  RH  077%=      5-min Rain = 0
KMC5 140802Z 12004KT M08/M12 A3032 RMK A01 T10831116  RH  077%=      5-min Rain = 0
KMC5 140803Z 12004KT M08/M12 A3032 RMK A01 T10831116  RH  077%=      5-min Rain = 0
KMC5 140804Z 12004KT M08/M12 A3032 RMK A01 T10831116  RH  077%=      5-min Rain = 0
KMC5 140805Z 12004KT M08/M12 A3032 RMK A01 T10831116  RH  077%=      5-min Rain = 0
KMC5 140806Z 12004KT M08/M12 A3032 RMK A01 T10831116  RH  077%=      5-min Rain = 0
KMC5 140807Z 12004KT M08/M12 A3032 RMK A01 T10831116  RH  077%=      5-min Rain = 0
KMC5 140808Z 12003KT M08/M12 A3032 RMK A01 T10831116  RH  077%=      5-min Rain = 0
KMC5 140809Z 12004KT M08/M12 A3032 RMK A01 T10831116  RH  077%=      5-min Rain = 0
KMC5 140810Z 13003KT M08/M12 A3033 RMK A01 T10831116  RH  077%=      5-min Rain = 0
KMC5 140811Z 13004KT M08/M12 A3033 RMK A01 T10831116  RH  077%=      5-min Rain = 0
KMC5 140812Z 13003KT M08/M12 A3032 RMK A01 T10831116  RH  077%=      5-min Rain = 0
KMC5 140813Z 13003KT M08/M12 A3032 RMK A01 T10831115  RH  078%=      5-min Rain = 0
KMC5 140814Z 13003KT M08/M12 A3032 RMK A01 T10831115  RH  078%=      5-min Rain = 0
KMC5 140815Z 13002KT M08/M12 A3033 RMK A01 T10831115  RH  078%=      5-min Rain = 0
KMC5 140816Z 13004KT M08/M12 A3033 RMK A01 T10831115  RH  077%=      5-min Rain = 0
KMC5 140817Z 13003KT M08/M12 A3033 RMK A01 T10831115  RH  077%=      5-min Rain = 0
KMC5 140818Z 13003KT M08/M12 A3033 RMK A01 T10821116  RH  077%=      5-min Rain = 0
KMC5 140819Z 12002KT M08/M12 A3033 RMK A01 T10821116  RH  077%=      5-min Rain = 0
KMC5 140820Z 12002KT M08/M12 A3033 RMK A01 T10821116  RH  077%=      5-min Rain = 0
KMC5 140821Z 11003KT M08/M12 A3033 RMK A01 T10821116  RH  077%=      5-min Rain = 0
KMC5 140822Z 12004KT M08/M12 A3033 RMK A01 T10821116  RH  077%=      5-min Rain = 0
KMC5 140823Z 12003KT M08/M12 A3033 RMK A01 T10821116  RH  076%=      5-min Rain = 0
KMC5 140824Z 11003KT M08/M12 A3032 RMK A01 T10821116  RH  076%=      5-min Rain = 0
KMC5 140825Z 12004KT M08/M12 A3032 RMK A01 T10821115  RH  077%=      5-min Rain = 0
KMC5 140826Z 12004KT M08/M12 A3032 RMK A01 T10821116  RH  077%=      5-min Rain = 0
KMC5 140827Z 11003KT M08/M12 A3032 RMK A01 T10821116  RH  076%=      5-min Rain = 0
KMC5 140828Z 11003KT M08/M12 A3032 RMK A01 T10821116  RH  076%=      5-min Rain = 0
KMC5 140829Z 12003KT M08/M12 A3032 RMK A01 T10821116  RH  077%=      5-min Rain = 0
KMC5 140830Z 12003KT M08/M12 A3032 RMK A01 T10821115  RH  077%=      5-min Rain = 0
KMC5 140831Z 12004KT M08/M12 A3032 RMK A01 T10821115  RH  077%=      5-min Rain = 0
KMC5 140832Z 12004KT M08/M12 A3032 RMK A01 T10821115  RH  077%=      5-min Rain = 0
KMC5 140833Z 12003KT M08/M12 A3032 RMK A01 T10821115  RH  077%=      5-min Rain = 0
KMC5 140834Z 11004KT M08/M12 A3032 RMK A01 T10821115  RH  077%=      5-min Rain = 0
KMC5 140835Z 12003KT M08/M12 A3032 RMK A01 T10821116  RH  076%=      5-min Rain = 0
KMC5 140836Z 11004KT M08/M12 A3032 RMK A01 T10811115  RH  076%=      5-min Rain = 0
KMC5 140837Z 11003KT M08/M12 A3032 RMK A01 T10811115  RH  077%=      5-min Rain = 0
KMC5 140838Z 11003KT M08/M12 A3032 RMK A01 T10811115  RH  077%=      5-min Rain = 0
KMC5 140839Z 11004KT M08/M12 A3032 RMK A01 T10811115  RH  077%=      5-min Rain = 0
KMC5 140840Z 11003KT M08/M12 A3032 RMK A01 T10811115  RH  077%=      5-min Rain = 0
KMC5 140841Z 11004KT M08/M12 A3032 RMK A01 T10811115  RH  077%=      5-min Rain = 0
KMC5 140842Z 11003KT M08/M12 A3032 RMK A01 T10811115  RH  077%=      5-min Rain = 0
KMC5 140843Z 11003KT M08/M12 A3032 RMK A01 T10811115  RH  077%=      5-min Rain = 0
KMC5 140844Z 11004KT M08/M12 A3032 RMK A01 T10811115  RH  077%=      5-min Rain = 0
KMC5 140845Z 11003KT M08/M12 A3032 RMK A01 T10811116  RH  076%=      5-min Rain = 0
KMC5 140846Z 11003KT M08/M12 A3032 RMK A01 T10811117  RH  076%=      5-min Rain = 0
KMC5 140847Z 11003KT M08/M12 A3032 RMK A01 T10811116  RH  076%=      5-min Rain = 0
KMC5 140848Z 11003KT M08/M12 A3032 RMK A01 T10811116  RH  076%=      5-min Rain = 0
KMC5 140849Z 11003KT M08/M12 A3032 RMK A01 T10811115  RH  076%=      5-min Rain = 0
KMC5 140850Z 11003KT M08/M12 A3032 RMK A01 T10811116  RH  076%=      5-min Rain = 0
KMC5 140851Z 12003KT M08/M12 A3032 RMK A01 T10821116  RH  077%=      5-min Rain = 0
KMC5 140852Z 11003KT M08/M12 A3032 RMK A01 T10821116  RH  077%=      5-min Rain = 0
KMC5 140853Z 12004KT M08/M12 A3032 RMK A01 T10831116  RH  077%=      5-min Rain = 0
KMC5 140854Z 11003KT M08/M12 A3032 RMK A01 T10831116  RH  077%=      5-min Rain = 0
KMC5 140855Z 12003KT M08/M12 A3032 RMK A01 T10831116  RH  077%=      5-min Rain = 0
KMC5 140856Z 12003KT M08/M12 A3032 RMK A01 T10831116  RH  078%=      5-min Rain = 0
KMC5 140857Z 11004KT M08/M12 A3032 RMK A01 T10841116  RH  078%=      5-min Rain = 0
KMC5 140858Z 11004KT M08/M12 A3032 RMK A01 T10841116  RH  078%=      5-min Rain = 0
KMC5 140859Z 11004KT M08/M12 A3032 RMK A01 T10841116  RH  078%=      5-min Rain = 0
KMC5 140900Z 11004KT M08/M12 A3032 RMK A01 T10841116  RH  078%=      5-min Rain = 0
KMC5 140901Z 11003KT M08/M12 A3032 RMK A01 T10841116  RH  078%=      5-min Rain = 0
KMC5 140902Z 11003KT M08/M12 A3032 RMK A01 T10841116  RH  078%=      5-min Rain = 0
KMC5 140903Z 11004KT M08/M12 A3032 RMK A01 T10841116  RH  078%=      5-min Rain = 0
KMC5 140904Z 11004KT M08/M12 A3032 RMK A01 T10841116  RH  077%=      5-min Rain = 0
KMC5 140905Z 11004KT M08/M12 A3032 RMK A01 T10841117  RH  077%=      5-min Rain = 0
KMC5 140906Z 11003KT M08/M12 A3032 RMK A01 T10841117  RH  077%=      5-min Rain = 0
KMC5 140907Z 11004KT M08/M12 A3032 RMK A01 T10841117  RH  077%=      5-min Rain = 0
KMC5 140908Z 11003KT M08/M12 A3032 RMK A01 T10841117  RH  077%=      5-min Rain = 0
KMC5 140909Z 11003KT M09/M12 A3032 RMK A01 T10851117  RH  078%=      5-min Rain = 0
KMC5 140910Z 11004KT M09/M12 A3032 RMK A01 T10851117  RH  078%=      5-min Rain = 0
KMC5 140911Z 11003KT M09/M12 A3032 RMK A01 T10851117  RH  078%=      5-min Rain = 0
KMC5 140912Z 11003KT M09/M12 A3032 RMK A01 T10851117  RH  078%=      5-min Rain = 0
KMC5 140913Z 11004KT M09/M12 A3032 RMK A01 T10861117  RH  078%=      5-min Rain = 0
KMC5 140914Z 11004KT M09/M12 A3032 RMK A01 T10851116  RH  078%=      5-min Rain = 0
KMC5 140915Z 11003KT M09/M12 A3032 RMK A01 T10861117  RH  079%=      5-min Rain = 0
KMC5 140916Z 12003KT M09/M12 A3032 RMK A01 T10861116  RH  079%=      5-min Rain = 0
KMC5 140917Z 12003KT M09/M12 A3032 RMK A01 T10861116  RH  079%=      5-min Rain = 0
KMC5 140918Z 12003KT M09/M12 A3032 RMK A01 T10861116  RH  079%=      5-min Rain = 0
KMC5 140919Z 12003KT M09/M12 A3032 RMK A01 T10861117  RH  079%=      5-min Rain = 0
KMC5 140920Z 13003KT M09/M12 A3032 RMK A01 T10861116  RH  079%=      5-min Rain = 0
KMC5 140921Z 13003KT M09/M12 A3032 RMK A01 T10861117  RH  079%=      5-min Rain = 0
KMC5 140922Z 12003KT M09/M12 A3032 RMK A01 T10861116  RH  079%=      5-min Rain = 0
KMC5 140923Z 12004KT M09/M12 A3032 RMK A01 T10861116  RH  079%=      5-min Rain = 0
KMC5 140924Z 12003KT M09/M12 A3032 RMK A01 T10861116  RH  079%=      5-min Rain = 0
KMC5 140925Z 12003KT M09/M12 A3032 RMK A01 T10861116  RH  079%=      5-min Rain = 0
KMC5 140926Z 13003KT M09/M12 A3032 RMK A01 T10851115  RH  079%=      5-min Rain = 0
KMC5 140927Z 13003KT M09/M12 A3032 RMK A01 T10851115  RH  079%=      5-min Rain = 0
KMC5 140928Z 13003KT M09/M12 A3032 RMK A01 T10861115  RH  080%=      5-min Rain = 0
KMC5 140929Z 13003KT M09/M11 A3032 RMK A01 T10851113  RH  080%=      5-min Rain = 0
KMC5 140930Z 13003KT M08/M11 A3032 RMK A01 T10841112  RH  080%=      5-min Rain = 0
KMC5 140931Z 13003KT M08/M11 A3032 RMK A01 T10841113  RH  079%=      5-min Rain = 0
KMC5 140932Z 13003KT M08/M11 A3032 RMK A01 T10831113  RH  079%=      5-min Rain = 0
KMC5 140933Z 14003KT M08/M11 A3032 RMK A01 T10831112  RH  079%=      5-min Rain = 0
KMC5 140934Z 13003KT M08/M11 A3032 RMK A01 T10821112  RH  079%=      5-min Rain = 0
KMC5 140935Z 14003KT M08/M11 A3032 RMK A01 T10821112  RH  079%=      5-min Rain = 0
KMC5 140936Z 14004KT M08/M11 A3032 RMK A01 T10811110  RH  079%=      5-min Rain = 0
KMC5 140937Z 14003KT M08/M11 A3032 RMK A01 T10801110  RH  079%=      5-min Rain = 0
KMC5 140938Z 13003KT M08/M11 A3032 RMK A01 T10801108  RH  080%=      5-min Rain = 0
KMC5 140939Z 13003KT M08/M11 A3032 RMK A01 T10791108  RH  080%=      5-min Rain = 0
KMC5 140940Z 13003KT M08/M11 A3032 RMK A01 T10781108  RH  079%=      5-min Rain = 0
KMC5 140941Z 13003KT M08/M11 A3032 RMK A01 T10771106  RH  080%=      5-min Rain = 0
KMC5 140942Z 13004KT M08/M11 A3032 RMK A01 T10771107  RH  079%=      5-min Rain = 0
KMC5 140943Z 14003KT M08/M11 A3032 RMK A01 T10771109  RH  078%=      5-min Rain = 0
KMC5 140944Z 14004KT M08/M11 A3032 RMK A01 T10771110  RH  077%=      5-min Rain = 0
KMC5 140945Z 14003KT M08/M11 A3032 RMK A01 T10771111  RH  076%=      5-min Rain = 0
KMC5 140946Z 14003KT M08/M11 A3032 RMK A01 T10771112  RH  076%=      5-min Rain = 0
KMC5 140947Z 14004KT M08/M11 A3032 RMK A01 T10771111  RH  076%=      5-min Rain = 0
KMC5 140948Z 13004KT M08/M11 A3032 RMK A01 T10761112  RH  075%=      5-min Rain = 0
KMC5 140949Z 13004KT M08/M11 A3032 RMK A01 T10761110  RH  077%=      5-min Rain = 0
KMC5 140950Z 14003KT M08/M11 A3032 RMK A01 T10761110  RH  076%=      5-min Rain = 0
KMC5 140951Z 13004KT M08/M11 A3031 RMK A01 T10761112  RH  075%=      5-min Rain = 0
KMC5 140952Z 13004KT M08/M11 A3031 RMK A01 T10761113  RH  075%=      5-min Rain = 0
KMC5 140953Z 14004KT M08/M11 A3031 RMK A01 T10761113  RH  075%=      5-min Rain = 0
KMC5 140954Z 13004KT M08/M11 A3031 RMK A01 T10761111  RH  076%=      5-min Rain = 0
KMC5 140955Z 13004KT M08/M11 A3031 RMK A01 T10761112  RH  075%=      5-min Rain = 0
KMC5 140956Z 14005KT M08/M11 A3031 RMK A01 T10761112  RH  075%=      5-min Rain = 0
KMC5 140957Z 14005KT M08/M11 A3031 RMK A01 T10761113  RH  074%=      5-min Rain = 0
KMC5 140958Z 14005KT M08/M12 A3031 RMK A01 T10751115  RH  073%=      5-min Rain = 0
KMC5 140959Z 13005KT M08/M12 A3031 RMK A01 T10761115  RH  073%=      5-min Rain = 0
KMC5 141000Z 13005KT M08/M12 A3031 RMK A01 T10761115  RH  074%=      5-min Rain = 0
KMC5 141001Z 13005KT M08/M12 A3031 RMK A01 T10761115  RH  073%=      5-min Rain = 0
KMC5 141002Z 13005KT M08/M12 A3031 RMK A01 T10761116  RH  073%=      5-min Rain = 0
KMC5 141003Z 13005KT M08/M12 A3031 RMK A01 T10761116  RH  073%=      5-min Rain = 0
KMC5 141004Z 13005KT M08/M12 A3031 RMK A01 T10761115  RH  073%=      5-min Rain = 0
KMC5 141005Z 12005KT M08/M12 A3031 RMK A01 T10761117  RH  072%=      5-min Rain = 0
KMC5 141006Z 13005KT M08/M12 A3031 RMK A01 T10761118  RH  072%=      5-min Rain = 0
KMC5 141007Z 14005KT M08/M12 A3031 RMK A01 T10761116  RH  073%=      5-min Rain = 0
KMC5 141008Z 13005KT M08/M12 A3031 RMK A01 T10761116  RH  073%=      5-min Rain = 0
KMC5 141009Z 14004KT M08/M12 A3031 RMK A01 T10761115  RH  074%=      5-min Rain = 0
KMC5 141010Z 13004KT M08/M12 A3031 RMK A01 T10761116  RH  073%=      5-min Rain = 0
KMC5 141011Z 14005KT M08/M12 A3031 RMK A01 T10761117  RH  073%=      5-min Rain = 0
KMC5 141012Z 14005KT M08/M12 A3031 RMK A01 T10761117  RH  072%=      5-min Rain = 0
KMC5 141013Z 14005KT M08/M12 A3031 RMK A01 T10771118  RH  072%=      5-min Rain = 0
KMC5 141014Z 14005KT M08/M12 A3031 RMK A01 T10771117  RH  073%=      5-min Rain = 0
KMC5 141015Z 14005KT M08/M12 A3031 RMK A01 T10771116  RH  073%=      5-min Rain = 0
KMC5 141016Z 13004KT M08/M12 A3031 RMK A01 T10771116  RH  074%=      5-min Rain = 0
KMC5 141017Z 13005KT M08/M12 A3031 RMK A01 T10761115  RH  074%=      5-min Rain = 0
KMC5 141018Z 13005KT M08/M12 A3031 RMK A01 T10761116  RH  073%=      5-min Rain = 0
KMC5 141019Z 13004KT M08/M12 A3031 RMK A01 T10761116  RH  073%=      5-min Rain = 0
KMC5 141020Z 13004KT M08/M12 A3031 RMK A01 T10761115  RH  074%=      5-min Rain = 0
KMC5 141021Z 13005KT M08/M12 A3031 RMK A01 T10761115  RH  074%=      5-min Rain = 0
KMC5 141022Z 12005KT M08/M12 A3031 RMK A01 T10761115  RH  074%=      5-min Rain = 0
KMC5 141023Z 13005KT M08/M12 A3031 RMK A01 T10761115  RH  074%=      5-min Rain = 0
KMC5 141024Z 12004KT M08/M12 A3031 RMK A01 T10761116  RH  073%=      5-min Rain = 0
KMC5 141025Z 12004KT M08/M12 A3031 RMK A01 T10761115  RH  074%=      5-min Rain = 0
KMC5 141026Z 12004KT M08/M12 A3031 RMK A01 T10761115  RH  074%=      5-min Rain = 0
KMC5 141027Z 13005KT M08/M11 A3031 RMK A01 T10761114  RH  074%=      5-min Rain = 0
KMC5 141028Z 13004KT M08/M12 A3031 RMK A01 T10761115  RH  074%=      5-min Rain = 0
KMC5 141029Z 14004KT M08/M11 A3031 RMK A01 T10761114  RH  074%=      5-min Rain = 0
KMC5 141030Z 14005KT M08/M11 A3031 RMK A01 T10761114  RH  074%=      5-min Rain = 0
KMC5 141031Z 14005KT M08/M12 A3031 RMK A01 T10761116  RH  073%=      5-min Rain = 0
KMC5 141032Z 14005KT M08/M12 A303 RMK A01 T10761115  RH  073%=      5-min Rain = 0
KMC5 141033Z 14006KT M08/M12 A303 RMK A01 T10761117  RH  073%=      5-min Rain = 0
KMC5 141034Z 14006KT M08/M12 A303 RMK A01 T10761117  RH  072%=      5-min Rain = 0
KMC5 141035Z 14005KT M08/M12 A303 RMK A01 T10761117  RH  073%=      5-min Rain = 0
KMC5 141036Z 14005KT M08/M12 A303 RMK A01 T10761116  RH  073%=      5-min Rain = 0
KMC5 141037Z 14005KT M08/M12 A303 RMK A01 T10761115  RH  073%=      5-min Rain = 0
KMC5 141038Z 13005KT M08/M12 A303 RMK A01 T10761115  RH  073%=      5-min Rain = 0
KMC5 141039Z 13005KT M08/M12 A303 RMK A01 T10761115  RH  073%=      5-min Rain = 0
KMC5 141040Z 13004KT M08/M12 A303 RMK A01 T10761115  RH  073%=      5-min Rain = 0
KMC5 141041Z 14005KT M08/M11 A303 RMK A01 T10761114  RH  074%=      5-min Rain = 0
KMC5 141042Z 15005KT M08/M12 A303 RMK A01 T10761116  RH  073%=      5-min Rain = 0
KMC5 141043Z 14004KT M08/M12 A303 RMK A01 T10761116  RH  073%=      5-min Rain = 0
KMC5 141044Z 13004KT M08/M11 A303 RMK A01 T10761114  RH  074%=      5-min Rain = 0
KMC5 141045Z 14005KT M08/M11 A303 RMK A01 T10751114  RH  074%=      5-min Rain = 0
KMC5 141046Z 13005KT M08/M12 A303 RMK A01 T10751116  RH  073%=      5-min Rain = 0
KMC5 141047Z 13005KT M08/M12 A303 RMK A01 T10751116  RH  073%=      5-min Rain = 0
KMC5 141048Z 13005KT M08/M12 A303 RMK A01 T10751116  RH  073%=      5-min Rain = 0
KMC5 141049Z 13005KT M08/M12 A303 RMK A01 T10761116  RH  073%=      5-min Rain = 0
KMC5 141050Z 14004KT M08/M12 A303 RMK A01 T10761115  RH  073%=      5-min Rain = 0
KMC5 141051Z 13004KT M08/M11 A303 RMK A01 T10761114  RH  074%=      5-min Rain = 0
KMC5 141052Z 13005KT M08/M12 A303 RMK A01 T10761115  RH  073%=      5-min Rain = 0
KMC5 141053Z 13006KT M08/M12 A303 RMK A01 T10761117  RH  072%=      5-min Rain = 0
KMC5 141054Z 13005KT M08/M12 A303 RMK A01 T10761117  RH  072%=      5-min Rain = 0
KMC5 141055Z 13005KT M08/M12 A303 RMK A01 T10761117  RH  072%=      5-min Rain = 0
KMC5 141056Z 13005KT M08/M12 A303 RMK A01 T10761117  RH  072%=      5-min Rain = 0
KMC5 141057Z 13004KT M08/M12 A303 RMK A01 T10761117  RH  072%=      5-min Rain = 0
KMC5 141058Z 13006KT M08/M12 A303 RMK A01 T10761117  RH  072%=      5-min Rain = 0
KMC5 141059Z 13006KT M08/M12 A303 RMK A01 T10761118  RH  072%=      5-min Rain = 0
KMC5 141100Z 14005KT M08/M12 A303 RMK A01 T10771119  RH  072%=      5-min Rain = 0
KMC5 141101Z 14005KT M08/M12 A303 RMK A01 T10771119  RH  072%=      5-min Rain = 0
KMC5 141102Z 14005KT M08/M12 A303 RMK A01 T10781118  RH  073%=      5-min Rain = 0
KMC5 141103Z 13006KT M08/M12 A303 RMK A01 T10781118  RH  073%=      5-min Rain = 0
KMC5 141104Z 14005KT M08/M12 A303 RMK A01 T10791119  RH  073%=      5-min Rain = 0
KMC5 141105Z 14005KT M08/M12 A303 RMK A01 T10801118  RH  074%=      5-min Rain = 0
KMC5 141106Z 15005KT M08/M12 A303 RMK A01 T10801118  RH  074%=      5-min Rain = 0
KMC5 141107Z 14006KT M08/M12 A303 RMK A01 T10811118  RH  075%=      5-min Rain = 0
KMC5 141108Z 14005KT M08/M12 A303 RMK A01 T10821119  RH  075%=      5-min Rain = 0
KMC5 141109Z 14005KT M08/M12 A303 RMK A01 T10821119  RH  075%=      5-min Rain = 0
KMC5 141110Z 14006KT M08/M12 A303 RMK A01 T10821119  RH  075%=      5-min Rain = 0
KMC5 141111Z 14006KT M08/M12 A303 RMK A01 T10831119  RH  075%=      5-min Rain = 0
KMC5 141112Z 13005KT M08/M12 A303 RMK A01 T10831119  RH  075%=      5-min Rain = 0
KMC5 141113Z 14005KT M08/M12 A303 RMK A01 T10841119  RH  075%=      5-min Rain = 0
KMC5 141114Z 14005KT M08/M12 A303 RMK A01 T10841119  RH  076%=      5-min Rain = 0
KMC5 141115Z 14005KT M08/M12 A303 RMK A01 T10841119  RH  076%=      5-min Rain = 0
KMC5 141116Z 14005KT M09/M12 A303 RMK A01 T10851118  RH  077%=      5-min Rain = 0
KMC5 141117Z 15005KT M09/M12 A303 RMK A01 T10851118  RH  077%=      5-min Rain = 0
KMC5 141118Z 15005KT M09/M12 A303 RMK A01 T10851117  RH  077%=      5-min Rain = 0
KMC5 141119Z 15005KT M09/M12 A303 RMK A01 T10851117  RH  078%=      5-min Rain = 0
KMC5 141120Z 14005KT M09/M12 A303 RMK A01 T10851118  RH  078%=      5-min Rain = 0
KMC5 141121Z 14005KT M09/M12 A303 RMK A01 T10851118  RH  078%=      5-min Rain = 0
KMC5 141122Z 14005KT M09/M12 A303 RMK A01 T10851118  RH  077%=      5-min Rain = 0
KMC5 141123Z 14006KT M09/M12 A303 RMK A01 T10861118  RH  077%=      5-min Rain = 0
KMC5 141124Z 13006KT M09/M12 A303 RMK A01 T10861119  RH  078%=      5-min Rain = 0
KMC5 141125Z 13005KT M09/M12 A303 RMK A01 T10861118  RH  077%=      5-min Rain = 0
KMC5 141126Z 13005KT M09/M12 A303 RMK A01 T10861118  RH  078%=      5-min Rain = 0
KMC5 141127Z 14005KT M09/M12 A3031 RMK A01 T10861118  RH  078%=      5-min Rain = 0
KMC5 141128Z 13005KT M09/M12 A3031 RMK A01 T10861118  RH  078%=      5-min Rain = 0
KMC5 141129Z 14005KT M09/M12 A3031 RMK A01 T10861117  RH  078%=      5-min Rain = 0
KMC5 141130Z 14005KT M09/M12 A3031 RMK A01 T10861117  RH  078%=      5-min Rain = 0
KMC5 141131Z 15005KT M09/M12 A3031 RMK A01 T10861117  RH  079%=      5-min Rain = 0
KMC5 141132Z 14005KT M09/M12 A303 RMK A01 T10861116  RH  079%=      5-min Rain = 0
KMC5 141133Z 14005KT M09/M12 A303 RMK A01 T10851116  RH  079%=      5-min Rain = 0
KMC5 141134Z 14005KT M09/M12 A3031 RMK A01 T10851116  RH  078%=      5-min Rain = 0
KMC5 141135Z 15005KT M09/M12 A3031 RMK A01 T10851115  RH  079%=      5-min Rain = 0
KMC5 141136Z 14005KT M08/M12 A3031 RMK A01 T10841115  RH  078%=      5-min Rain = 0
KMC5 141137Z 14005KT M08/M12 A3031 RMK A01 T10841115  RH  079%=      5-min Rain = 0
KMC5 141138Z 14005KT M08/M12 A303 RMK A01 T10841115  RH  079%=      5-min Rain = 0
KMC5 141139Z 14004KT M08/M11 A3031 RMK A01 T10841114  RH  079%=      5-min Rain = 0
KMC5 141140Z 14005KT M08/M11 A3031 RMK A01 T10841114  RH  079%=      5-min Rain = 0
KMC5 141141Z 14004KT M08/M11 A3031 RMK A01 T10831114  RH  079%=      5-min Rain = 0
KMC5 141142Z 14004KT M08/M11 A3031 RMK A01 T10831114  RH  079%=      5-min Rain = 0
KMC5 141143Z 14004KT M08/M11 A3031 RMK A01 T10831113  RH  079%=      5-min Rain = 0
KMC5 141144Z 14004KT M08/M11 A303 RMK A01 T10831113  RH  079%=      5-min Rain = 0
KMC5 141145Z 15004KT M08/M11 A3031 RMK A01 T10831113  RH  079%=      5-min Rain = 0
KMC5 141146Z 14004KT M08/M11 A3031 RMK A01 T10831113  RH  079%=      5-min Rain = 0
KMC5 141147Z 14004KT M08/M11 A3031 RMK A01 T10831113  RH  079%=      5-min Rain = 0
KMC5 141148Z 15004KT M08/M11 A3031 RMK A01 T10821112  RH  079%=      5-min Rain = 0
KMC5 141149Z 14004KT M08/M11 A3031 RMK A01 T10821112  RH  079%=      5-min Rain = 0
KMC5 141150Z 14004KT M08/M11 A3031 RMK A01 T10821112  RH  079%=      5-min Rain = 0
KMC5 141151Z 15004KT M08/M11 A3031 RMK A01 T10821112  RH  079%=      5-min Rain = 0
KMC5 141152Z 15005KT M08/M11 A3031 RMK A01 T10821112  RH  079%=      5-min Rain = 0
KMC5 141153Z 15005KT M08/M11 A3031 RMK A01 T10821112  RH  079%=      5-min Rain = 0
KMC5 141154Z 16005KT M08/M11 A3031 RMK A01 T10831113  RH  079%=      5-min Rain = 0
KMC5 141155Z 16004KT M08/M11 A3031 RMK A01 T10821112  RH  079%=      5-min Rain = 0
KMC5 141156Z 16005KT M08/M11 A3031 RMK A01 T10831111  RH  080%=      5-min Rain = 0
KMC5 141157Z 16005KT M08/M11 A3031 RMK A01 T10831111  RH  080%=      5-min Rain = 0
KMC5 141158Z 16004KT M08/M11 A3031 RMK A01 T10831112  RH  080%=      5-min Rain = 0
KMC5 141159Z 16004KT M08/M11 A3031 RMK A01 T10831111  RH  080%=      5-min Rain = 0
KMC5 141200Z 16004KT M08/M11 A3031 RMK A01 T10831110  RH  081%=      5-min Rain = 0
KMC5 141201Z 17005KT M08/M11 A3031 RMK A01 T10831110  RH  081%=      5-min Rain = 0
KMC5 141202Z 16004KT M08/M11 A3031 RMK A01 T10821110  RH  081%=      5-min Rain = 0
KMC5 141203Z 17004KT M08/M11 A3031 RMK A01 T10821110  RH  080%=      5-min Rain = 0
KMC5 141204Z 16004KT M08/M11 A3031 RMK A01 T10811110  RH  080%=      5-min Rain = 0
KMC5 141205Z 17004KT M08/M11 A3031 RMK A01 T10811110  RH  080%=      5-min Rain = 0
KMC5 141206Z 16004KT M08/M11 A3031 RMK A01 T10811109  RH  080%=      5-min Rain = 0
KMC5 141207Z 17004KT M08/M11 A3031 RMK A01 T10801107  RH  081%=      5-min Rain = 0
KMC5 141208Z 16004KT M08/M11 A3031 RMK A01 T10801107  RH  081%=      5-min Rain = 0
KMC5 141209Z 17004KT M08/M11 A3031 RMK A01 T10801107  RH  081%=      5-min Rain = 0
KMC5 141210Z 16004KT M08/M11 A3031 RMK A01 T10791106  RH  081%=      5-min Rain = 0
KMC5 141211Z 16005KT M08/M11 A3031 RMK A01 T10791107  RH  080%=      5-min Rain = 0
KMC5 141212Z 16005KT M08/M11 A303 RMK A01 T10791109  RH  079%=      5-min Rain = 0
KMC5 141213Z 16006KT M08/M11 A303 RMK A01 T10791111  RH  078%=      5-min Rain = 0
KMC5 141214Z 16006KT M08/M11 A303 RMK A01 T10791112  RH  077%=      5-min Rain = 0
KMC5 141215Z 16005KT M08/M11 A303 RMK A01 T10791114  RH  076%=      5-min Rain = 0
KMC5 141216Z 17005KT M08/M11 A303 RMK A01 T10791114  RH  076%=      5-min Rain = 0
KMC5 141217Z 15006KT M08/M11 A303 RMK A01 T10791113  RH  076%=      5-min Rain = 0
KMC5 141218Z 15006KT M08/M11 A303 RMK A01 T10791114  RH  076%=      5-min Rain = 0
KMC5 141219Z 15006KT M08/M11 A303 RMK A01 T10791114  RH  076%=      5-min Rain = 0
KMC5 141220Z 16006KT M08/M11 A303 RMK A01 T10791114  RH  076%=      5-min Rain = 0
KMC5 141221Z 14005KT M08/M11 A303 RMK A01 T10791114  RH  076%=      5-min Rain = 0
KMC5 141222Z 15006KT M08/M11 A303 RMK A01 T10791114  RH  076%=      5-min Rain = 0
KMC5 141223Z 15006KT M08/M11 A303 RMK A01 T10791114  RH  076%=      5-min Rain = 0
KMC5 141224Z 15006KT M08/M12 A303 RMK A01 T10781115  RH  075%=      5-min Rain = 0
KMC5 141225Z 15006KT M08/M12 A303 RMK A01 T10791115  RH  075%=      5-min Rain = 0
KMC5 141226Z 15007KT M08/M11 A303 RMK A01 T10791114  RH  076%=      5-min Rain = 0
KMC5 141227Z 16007KT M08/M12 A303 RMK A01 T10781115  RH  075%=      5-min Rain = 0
KMC5 141228Z 16007KT M08/M12 A303 RMK A01 T10791117  RH  074%=      5-min Rain = 0
KMC5 141229Z 16007KT M08/M12 A303 RMK A01 T10781116  RH  074%=      5-min Rain = 0
KMC5 141230Z 15006KT M08/M12 A303 RMK A01 T10791117  RH  074%=      5-min Rain = 0
KMC5 141231Z 15006KT M08/M12 A303 RMK A01 T10791116  RH  075%=      5-min Rain = 0
KMC5 141232Z 15007KT M08/M12 A303 RMK A01 T10791117  RH  074%=      5-min Rain = 0
KMC5 141233Z 15007KT M08/M12 A303 RMK A01 T10791117  RH  074%=      5-min Rain = 0
KMC5 141234Z 16007KT M08/M12 A303 RMK A01 T10791116  RH  075%=      5-min Rain = 0
KMC5 141235Z 15007KT M08/M12 A303 RMK A01 T10791117  RH  074%=      5-min Rain = 0
KMC5 141236Z 16006KT M08/M12 A303 RMK A01 T10791115  RH  075%=      5-min Rain = 0
KMC5 141237Z 17006KT M08/M12 A303 RMK A01 T10781115  RH  075%=      5-min Rain = 0
KMC5 141238Z 16005KT M08/M12 A303 RMK A01 T10781115  RH  075%=      5-min Rain = 0
KMC5 141239Z 17006KT M08/M11 A303 RMK A01 T10781114  RH  075%=      5-min Rain = 0
KMC5 141240Z 17006KT M08/M12 A303 RMK A01 T10771115  RH  074%=      5-min Rain = 0
KMC5 141241Z 17006KT M08/M12 A303 RMK A01 T10781115  RH  074%=      5-min Rain = 0
KMC5 141242Z 17006KT M08/M12 A303 RMK A01 T10771115  RH  074%=      5-min Rain = 0
KMC5 141243Z 16007KT M08/M11 A303 RMK A01 T10771114  RH  075%=      5-min Rain = 0
KMC5 141244Z 16007KT M08/M12 A303 RMK A01 T10771115  RH  074%=      5-min Rain = 0
KMC5 141245Z 16007KT M08/M12 A303 RMK A01 T10771116  RH  074%=      5-min Rain = 0
KMC5 141246Z 16007KT M08/M12 A303 RMK A01 T10771116  RH  073%=      5-min Rain = 0
KMC5 141247Z 15006KT M08/M12 A303 RMK A01 T10781117  RH  073%=      5-min Rain = 0
KMC5 141248Z 15007KT M08/M12 A303 RMK A01 T10781118  RH  073%=      5-min Rain = 0
KMC5 141249Z 16006KT M08/M12 A303 RMK A01 T10781119  RH  072%=      5-min Rain = 0
KMC5 141250Z 16005KT M08/M12 A303 RMK A01 T10781117  RH  073%=      5-min Rain = 0
KMC5 141251Z 16006KT M08/M12 A303 RMK A01 T10771116  RH  073%=      5-min Rain = 0
KMC5 141252Z 17006KT M08/M12 A303 RMK A01 T10771116  RH  074%=      5-min Rain = 0
KMC5 141253Z 16007KT M08/M12 A303 RMK A01 T10771117  RH  073%=      5-min Rain = 0
KMC5 141254Z 17007KT M08/M12 A303 RMK A01 T10771118  RH  072%=      5-min Rain = 0
KMC5 141255Z 16006KT M08/M12 A303 RMK A01 T10771117  RH  073%=      5-min Rain = 0
KMC5 141256Z 17006KT M08/M12 A303 RMK A01 T10771116  RH  074%=      5-min Rain = 0
KMC5 141257Z 17007KT M08/M12 A303 RMK A01 T10771116  RH  074%=      5-min Rain = 0
KMC5 141258Z 17006KT M08/M12 A303 RMK A01 T10771117  RH  073%=      5-min Rain = 0
KMC5 141259Z 16007KT M08/M12 A303 RMK A01 T10771118  RH  072%=      5-min Rain = 0
KMC5 141300Z 16005KT M08/M12 A303 RMK A01 T10771117  RH  073%=      5-min Rain = 0
KMC5 141301Z 15006KT M08/M12 A303 RMK A01 T10771117  RH  073%=      5-min Rain = 0
KMC5 141302Z 16006KT M08/M12 A303 RMK A01 T10771116  RH  073%=      5-min Rain = 0
KMC5 141303Z 17007KT M08/M12 A303 RMK A01 T10771116  RH  074%=      5-min Rain = 0
KMC5 141304Z 17007KT M08/M12 A303 RMK A01 T10761117  RH  073%=      5-min Rain = 0
KMC5 141305Z 17007KT M08/M12 A303 RMK A01 T10761118  RH  072%=      5-min Rain = 0
KMC5 141306Z 17007KT M08/M12 A303 RMK A01 T10771118  RH  072%=      5-min Rain = 0
KMC5 141307Z 17007KT M08/M12 A303 RMK A01 T10771117  RH  073%=      5-min Rain = 0
KMC5 141308Z 17007KT M08/M12 A303 RMK A01 T10771118  RH  072%=      5-min Rain = 0
KMC5 141309Z 15005KT M08/M12 A303 RMK A01 T10771118  RH  072%=      5-min Rain = 0
KMC5 141310Z 17006KT M08/M12 A303 RMK A01 T10761116  RH  073%=      5-min Rain = 0
KMC5 141311Z 17006KT M08/M12 A303 RMK A01 T10761116  RH  073%=      5-min Rain = 0
KMC5 141312Z 15006KT M08/M12 A303 RMK A01 T10761115  RH  074%=      5-min Rain = 0
KMC5 141313Z 16007KT M08/M12 A303 RMK A01 T10761115  RH  074%=      5-min Rain = 0
KMC5 141314Z 15008KT M08/M12 A303 RMK A01 T10751116  RH  073%=      5-min Rain = 0
KMC5 141315Z 16007KT M08/M12 A303 RMK A01 T10761118  RH  072%=      5-min Rain = 0
KMC5 141316Z 17006KT M08/M12 A303 RMK A01 T10761118  RH  072%=      5-min Rain = 0
KMC5 141317Z 17007KT M08/M12 A303 RMK A01 T10761116  RH  073%=      5-min Rain = 0
KMC5 141318Z 17008KT M08/M12 A303 RMK A01 T10761117  RH  072%=      5-min Rain = 0
KMC5 141319Z 17007KT M08/M12 A303 RMK A01 T10761119  RH  072%=      5-min Rain = 0
KMC5 141320Z 17006KT M08/M12 A303 RMK A01 T10761117  RH  073%=      5-min Rain = 0
KMC5 141321Z 17006KT M08/M12 A303 RMK A01 T10761117  RH  072%=      5-min Rain = 0
KMC5 141322Z 17006KT M08/M12 A303 RMK A01 T10761118  RH  072%=      5-min Rain = 0
KMC5 141323Z 16007KT M08/M12 A303 RMK A01 T10761118  RH  072%=      5-min Rain = 0
KMC5 141324Z 16006KT M08/M12 A3031 RMK A01 T10761116  RH  073%=      5-min Rain = 0
KMC5 141325Z 16007KT M08/M12 A3031 RMK A01 T10761116  RH  073%=      5-min Rain = 0
KMC5 141326Z 16007KT M08/M12 A3031 RMK A01 T10761116  RH  073%=      5-min Rain = 0
KMC5 141327Z 16007KT M08/M12 A3031 RMK A01 T10761117  RH  072%=      5-min Rain = 0
KMC5 141328Z 17007KT M08/M12 A3031 RMK A01 T10761116  RH  073%=      5-min Rain = 0
KMC5 141329Z 17006KT M08/M12 A3031 RMK A01 T10761117  RH  073%=      5-min Rain = 0
KMC5 141330Z 16006KT M08/M12 A3031 RMK A01 T10761116  RH  073%=      5-min Rain = 0
KMC5 141331Z 16006KT M08/M12 A3031 RMK A01 T10751115  RH  073%=      5-min Rain = 0
KMC5 141332Z 16007KT M08/M12 A3031 RMK A01 T10751115  RH  073%=      5-min Rain = 0
KMC5 141333Z 16008KT M08/M12 A3031 RMK A01 T10751115  RH  073%=      5-min Rain = 0
KMC5 141334Z 17007KT M08/M12 A3031 RMK A01 T10751116  RH  073%=      5-min Rain = 0
KMC5 141335Z 16008KT M08/M12 A3031 RMK A01 T10751116  RH  072%=      5-min Rain = 0
KMC5 141336Z 16008KT M08/M12 A3031 RMK A01 T10751117  RH  072%=      5-min Rain = 0
KMC5 141337Z 17008KT M08/M12 A3031 RMK A01 T10751117  RH  072%=      5-min Rain = 0
KMC5 141338Z 17008KT M08/M12 A3031 RMK A01 T10751118  RH  072%=      5-min Rain = 0
KMC5 141339Z 16007KT M08/M12 A3031 RMK A01 T10751117  RH  072%=      5-min Rain = 0
KMC5 141340Z 16008KT M08/M12 A3031 RMK A01 T10751116  RH  073%=      5-min Rain = 0
KMC5 141341Z 16008KT M08/M12 A3031 RMK A01 T10751117  RH  072%=      5-min Rain = 0
KMC5 141342Z 16008KT M08/M12 A3031 RMK A01 T10751117  RH  072%=      5-min Rain = 0
KMC5 141343Z 16007KT M08/M12 A3031 RMK A01 T10751117  RH  072%=      5-min Rain = 0
KMC5 141344Z 16007KT M08/M12 A3031 RMK A01 T10751116  RH  073%=      5-min Rain = 0
KMC5 141345Z 16008KT M08/M12 A3031 RMK A01 T10751117  RH  072%=      5-min Rain = 0
KMC5 141346Z 17007KT M08/M12 A3031 RMK A01 T10751116  RH  072%=      5-min Rain = 0
KMC5 141347Z 17007KT M08/M12 A3031 RMK A01 T10751116  RH  073%=      5-min Rain = 0
KMC5 141348Z 17006KT M08/M12 A3031 RMK A01 T10751116  RH  073%=      5-min Rain = 0
KMC5 141349Z 17006KT M08/M12 A3031 RMK A01 T10751116  RH  073%=      5-min Rain = 0
KMC5 141350Z 17007KT M08/M12 A3031 RMK A01 T10751115  RH  073%=      5-min Rain = 0
KMC5 141351Z 16007KT M07/M11 A3031 RMK A01 T10741114  RH  073%=      5-min Rain = 0
KMC5 141352Z 17007KT M07/M12 A3031 RMK A01 T10741115  RH  073%=      5-min Rain = 0
KMC5 141353Z 16007KT M07/M11 A3031 RMK A01 T10741114  RH  073%=      5-min Rain = 0
KMC5 141354Z 16008KT M07/M11 A3031 RMK A01 T10741114  RH  073%=      5-min Rain = 0
KMC5 141355Z 16009KT M07/M12 A3031 RMK A01 T10741116  RH  072%=      5-min Rain = 0
KMC5 141356Z 17007KT M07/M12 A3031 RMK A01 T10741115  RH  072%=      5-min Rain = 0
KMC5 141357Z 16008KT M07/M12 A3031 RMK A01 T10741115  RH  073%=      5-min Rain = 0
KMC5 141358Z 16008KT M07/M12 A3031 RMK A01 T10741115  RH  072%=      5-min Rain = 0
KMC5 141359Z 17007KT M07/M12 A3031 RMK A01 T10741116  RH  072%=      5-min Rain = 0
KMC5 141400Z 16008KT M07/M12 A3031 RMK A01 T10741115  RH  073%=      5-min Rain = 0
KMC5 141401Z 16007KT M07/M11 A3031 RMK A01 T10741114  RH  073%=      5-min Rain = 0
KMC5 141402Z 16010KT M07/M11 A3031 RMK A01 T10731113  RH  073%=      5-min Rain = 0
KMC5 141403Z 16010KT M07/M11 A3031 RMK A01 T10731114  RH  072%=      5-min Rain = 0
KMC5 141404Z 16009KT M07/M11 A3031 RMK A01 T10731114  RH  072%=      5-min Rain = 0
KMC5 141405Z 16011KT M07/M11 A3031 RMK A01 T10731114  RH  072%=      5-min Rain = 0
KMC5 141406Z 16009KT M07/M12 A3031 RMK A01 T10731115  RH  072%=      5-min Rain = 0
KMC5 141407Z 16010KT M07/M12 A3031 RMK A01 T10741115  RH  073%=      5-min Rain = 0
KMC5 141408Z 17011KT M07/M11 A3031 RMK A01 T10731113  RH  073%=      5-min Rain = 0
KMC5 141409Z 16011KT M07/M11 A3031 RMK A01 T10731114  RH  072%=      5-min Rain = 0
KMC5 141410Z 17010KT M07/M11 A3031 RMK A01 T10731114  RH  072%=      5-min Rain = 0
KMC5 141411Z 17010KT M07/M12 A3031 RMK A01 T10731115  RH  072%=      5-min Rain = 0
KMC5 141412Z 16009KT M07/M11 A3031 RMK A01 T10731114  RH  073%=      5-min Rain = 0
KMC5 141413Z 16008KT M07/M11 A3031 RMK A01 T10731113  RH  073%=      5-min Rain = 0
KMC5 141414Z 17010KT M07/M11 A3031 RMK A01 T10731113  RH  073%=      5-min Rain = 0
KMC5 141415Z 17008KT M07/M11 A3031 RMK A01 T10721112  RH  073%=      5-min Rain = 0
KMC5 141416Z 17010KT M07/M11 A3031 RMK A01 T10721112  RH  073%=      5-min Rain = 0
KMC5 141417Z 17011KT M07/M11 A3031 RMK A01 T10721113  RH  073%=      5-min Rain = 0
KMC5 141418Z 17010KT M07/M11 A3031 RMK A01 T10731113  RH  073%=      5-min Rain = 0
KMC5 141419Z 16008KT M07/M11 A3031 RMK A01 T10731113  RH  073%=      5-min Rain = 0
KMC5 141420Z 17010KT M07/M11 A3031 RMK A01 T10721111  RH  074%=      5-min Rain = 0
KMC5 141421Z 18010KT M07/M11 A3031 RMK A01 T10721112  RH  073%=      5-min Rain = 0
KMC5 141422Z 17010KT M07/M11 A3031 RMK A01 T10721112  RH  073%=      5-min Rain = 0
KMC5 141423Z 17009KT M07/M11 A3031 RMK A01 T10721113  RH  073%=      5-min Rain = 0
KMC5 141424Z 17009KT M07/M11 A3031 RMK A01 T10721111  RH  073%=      5-min Rain = 0
KMC5 141425Z 18009KT M07/M11 A3031 RMK A01 T10711110  RH  073%=      5-min Rain = 0
KMC5 141426Z 18010KT M07/M11 A3031 RMK A01 T10701110  RH  073%=      5-min Rain = 0
KMC5 141427Z 17008KT M07/M11 A3031 RMK A01 T10701109  RH  074%=      5-min Rain = 0
KMC5 141428Z 17008KT M07/M11 A3031 RMK A01 T10691108  RH  074%=      5-min Rain = 0
KMC5 141429Z 16009KT M07/M11 A3031 RMK A01 T10691108  RH  074%=      5-min Rain = 0
KMC5 141430Z 18010KT M07/M11 A3031 RMK A01 T10681109  RH  073%=      5-min Rain = 0
KMC5 141431Z 17010KT M07/M11 A3031 RMK A01 T10701112  RH  072%=      5-min Rain = 0
KMC5 141432Z 17010KT M07/M11 A3031 RMK A01 T10701111  RH  072%=      5-min Rain = 0
KMC5 141433Z 16010KT M07/M11 A3031 RMK A01 T10711112  RH  072%=      5-min Rain = 0
KMC5 141434Z 17011KT M07/M11 A3031 RMK A01 T10711111  RH  073%=      5-min Rain = 0
KMC5 141435Z 17011KT M07/M11 A3031 RMK A01 T10701111  RH  073%=      5-min Rain = 0
KMC5 141436Z 17011KT M07/M11 A3031 RMK A01 T10701111  RH  073%=      5-min Rain = 0
KMC5 141437Z 17010KT M07/M11 A3031 RMK A01 T10701110  RH  073%=      5-min Rain = 0
KMC5 141438Z 17011KT M07/M11 A3031 RMK A01 T10701110  RH  073%=      5-min Rain = 0
KMC5 141439Z 17010KT M07/M11 A3031 RMK A01 T10691110  RH  072%=      5-min Rain = 0
KMC5 141440Z 17010KT M07/M11 A3031 RMK A01 T10681109  RH  073%=      5-min Rain = 0
KMC5 141441Z 18011KT M07/M11 A3031 RMK A01 T10661107  RH  073%=      5-min Rain = 0
KMC5 141442Z 18010KT M07/M11 A3031 RMK A01 T10661109  RH  071%=      5-min Rain = 0
KMC5 141443Z 17012KT M07/M11 A3031 RMK A01 T10661109  RH  071%=      5-min Rain = 0
KMC5 141444Z 17010KT M07/M11 A3031 RMK A01 T10661109  RH  071%=      5-min Rain = 0
KMC5 141445Z 17011KT M07/M11 A3031 RMK A01 T10651108  RH  072%=      5-min Rain = 0
KMC5 141446Z 18011KT M06/M11 A3031 RMK A01 T10641108  RH  071%=      5-min Rain = 0
KMC5 141447Z 19012KT M06/M11 A3031 RMK A01 T10641107  RH  072%=      5-min Rain = 0
KMC5 141448Z 18010KT M06/M10 A3031 RMK A01 T10621104  RH  072%=      5-min Rain = 0
KMC5 141449Z 17011KT M06/M11 A3031 RMK A01 T10621105  RH  071%=      5-min Rain = 0
KMC5 141450Z 18010KT M06/M11 A3031 RMK A01 T10621106  RH  071%=      5-min Rain = 0
KMC5 141451Z 18012KT M06/M10 A3031 RMK A01 T10611104  RH  072%=      5-min Rain = 0
KMC5 141452Z 18013KT M06/M11 A3031 RMK A01 T10611107  RH  070%=      5-min Rain = 0
KMC5 141453Z 18012KT M06/M11 A3031 RMK A01 T10631109  RH  070%=      5-min Rain = 0
KMC5 141454Z 18014KT M06/M11 A3031 RMK A01 T10621107  RH  070%=      5-min Rain = 0
KMC5 141455Z 17013KT M06/M11 A3031 RMK A01 T10631109  RH  070%=      5-min Rain = 0
KMC5 141456Z 17013KT M06/M11 A3031 RMK A01 T10641109  RH  070%=      5-min Rain = 0
KMC5 141457Z 18013KT M06/M11 A3031 RMK A01 T10641107  RH  071%=      5-min Rain = 0
KMC5 141458Z 18012KT M06/M11 A3031 RMK A01 T10641109  RH  070%=      5-min Rain = 0
KMC5 141459Z 18012KT M06/M11 A3031 RMK A01 T10641109  RH  070%=      5-min Rain = 0
KMC5 141500Z 18013KT M06/M11 A3031 RMK A01 T10641109  RH  071%=      5-min Rain = 0
KMC5 141501Z 18013KT M06/M11 A3031 RMK A01 T10641109  RH  071%=      5-min Rain = 0
KMC5 141502Z 19013KT M06/M11 A3031 RMK A01 T10641108  RH  071%=      5-min Rain = 0
KMC5 141503Z 18012KT M06/M11 A3031 RMK A01 T10641109  RH  071%=      5-min Rain = 0
KMC5 141504Z 19011KT M06/M11 A3031 RMK A01 T10641108  RH  071%=      5-min Rain = 0
KMC5 141505Z 18012KT M06/M11 A3031 RMK A01 T10641106  RH  072%=      5-min Rain = 0
KMC5 141506Z 17011KT M06/M11 A3031 RMK A01 T10631106  RH  072%=      5-min Rain = 0
KMC5 141507Z 17013KT M06/M11 A3031 RMK A01 T10621106  RH  071%=      5-min Rain = 0
KMC5 141508Z 18012KT M06/M11 A3031 RMK A01 T10631107  RH  071%=      5-min Rain = 0
KMC5 141509Z 17013KT M06/M11 A3031 RMK A01 T10631107  RH  071%=      5-min Rain = 0
KMC5 141510Z 17012KT M06/M11 A3031 RMK A01 T10631107  RH  071%=      5-min Rain = 0
KMC5 141511Z 18011KT M06/M11 A3031 RMK A01 T10631107  RH  071%=      5-min Rain = 0
KMC5 141512Z 18014KT M06/M11 A3031 RMK A01 T10621105  RH  071%=      5-min Rain = 0
KMC5 141513Z 18014KT M06/M11 A3031 RMK A01 T10611107  RH  070%=      5-min Rain = 0
KMC5 141514Z 19014KT M06/M11 A3031 RMK A01 T10621107  RH  070%=      5-min Rain = 0
KMC5 141515Z 18012KT M06/M11 A3031 RMK A01 T10621106  RH  071%=      5-min Rain = 0
KMC5 141516Z 18013KT M06/M11 A3031 RMK A01 T10611105  RH  071%=      5-min Rain = 0
KMC5 141517Z 18014KT M06/M11 A3031 RMK A01 T10611106  RH  071%=      5-min Rain = 0
KMC5 141518Z 18014KT M06/M11 A3031 RMK A01 T10611107  RH  070%=      5-min Rain = 0
KMC5 141519Z 19014KT M06/M11 A3031 RMK A01 T10621107  RH  071%=      5-min Rain = 0
KMC5 141520Z 18014KT M06/M11 A3031 RMK A01 T10621107  RH  071%=      5-min Rain = 0
KMC5 141521Z 18013KT M06/M11 A3031 RMK A01 T10621106  RH  071%=      5-min Rain = 0
KMC5 141522Z 19015KT M06/M11 A3031 RMK A01 T10621106  RH  071%=      5-min Rain = 0
KMC5 141523Z 19013KT M06/M11 A3031 RMK A01 T10611106  RH  071%=      5-min Rain = 0
KMC5 141524Z 19013KT M06/M11 A3031 RMK A01 T10621106  RH  071%=      5-min Rain = 0
KMC5 141525Z 19013KT M06/M11 A3031 RMK A01 T10621106  RH  071%=      5-min Rain = 0
KMC5 141526Z 19014KT M06/M11 A3031 RMK A01 T10621106  RH  071%=      5-min Rain = 0
KMC5 141527Z 19013KT M06/M11 A3031 RMK A01 T10621106  RH  071%=      5-min Rain = 0
KMC5 141528Z 18012KT M06/M11 A3031 RMK A01 T10621105  RH  071%=      5-min Rain = 0
KMC5 141529Z 18013KT M06/M11 A3031 RMK A01 T10621105  RH  071%=      5-min Rain = 0
KMC5 141530Z 18013KT M06/M10 A3031 RMK A01 T10621104  RH  072%=      5-min Rain = 0
KMC5 141531Z 17013KT M06/M10 A3031 RMK A01 T10611104  RH  072%=      5-min Rain = 0
KMC5 141532Z 18013KT M06/M10 A3031 RMK A01 T10601103  RH  072%=      5-min Rain = 0
KMC5 141533Z 17013KT M06/M10 A3031 RMK A01 T10601103  RH  071%=      5-min Rain = 0
KMC5 141534Z 18013KT M06/M10 A3031 RMK A01 T10601104  RH  071%=      5-min Rain = 0
KMC5 141535Z 17013KT M06/M11 A3031 RMK A01 T10601105  RH  071%=      5-min Rain = 0
KMC5 141536Z 17013KT M06/M10 A3031 RMK A01 T10601104  RH  071%=      5-min Rain = 0
KMC5 141537Z 17012KT M06/M10 A3031 RMK A01 T10601104  RH  071%=      5-min Rain = 0
KMC5 141538Z 18012KT M06/M10 A3031 RMK A01 T10591102  RH  071%=      5-min Rain = 0
KMC5 141539Z 18011KT M06/M10 A3031 RMK A01 T10581101  RH  072%=      5-min Rain = 0
KMC5 141540Z 17011KT M06/M10 A3031 RMK A01 T10571100  RH  071%=      5-min Rain = 0
KMC5 141541Z 18012KT M06/M10 A3031 RMK A01 T10561100  RH  071%=      5-min Rain = 0
KMC5 141542Z 17012KT M06/M10 A3031 RMK A01 T10561101  RH  071%=      5-min Rain = 0
KMC5 141543Z 17011KT M06/M10 A3031 RMK A01 T10571101  RH  071%=      5-min Rain = 0
KMC5 141544Z 18013KT M06/M10 A3031 RMK A01 T10571100  RH  071%=      5-min Rain = 0
KMC5 141545Z 17013KT M06/M10 A3031 RMK A01 T10581101  RH  072%=      5-min Rain = 0
KMC5 141546Z 18012KT M06/M10 A3031 RMK A01 T10581100  RH  072%=      5-min Rain = 0
KMC5 141547Z 18013KT M06/M10 A3031 RMK A01 T10571099  RH  072%=      5-min Rain = 0
KMC5 141548Z 19012KT M06/M10 A3031 RMK A01 T10571099  RH  073%=      5-min Rain = 0
KMC5 141549Z 18012KT M06/M10 A3031 RMK A01 T10571098  RH  073%=      5-min Rain = 0
KMC5 141550Z 19011KT M06/M10 A3031 RMK A01 T10571099  RH  073%=      5-min Rain = 0
KMC5 141551Z 17010KT M06/M10 A3031 RMK A01 T10561095  RH  074%=      5-min Rain = 0
KMC5 141552Z 18014KT M05/M10 A3031 RMK A01 T10541095  RH  073%=      5-min Rain = 0
KMC5 141553Z 19013KT M06/M10 A3031 RMK A01 T10551098  RH  072%=      5-min Rain = 0
KMC5 141554Z 18011KT M06/M10 A3031 RMK A01 T10571098  RH  073%=      5-min Rain = 0
KMC5 141555Z 17012KT M06/M10 A3031 RMK A01 T10561096  RH  074%=      5-min Rain = 0
KMC5 141556Z 18013G18KT M06/M10 A3031 RMK A01 T10551096  RH  073%=      5-min Rain = 0
KMC5 141557Z 18014KT M06/M10 A3031 RMK A01 T10551095  RH  074%=      5-min Rain = 0
KMC5 141558Z 18014KT M06/M10 A3031 RMK A01 T10551096  RH  073%=      5-min Rain = 0
KMC5 141559Z 18013KT M06/M10 A3031 RMK A01 T10561097  RH  073%=      5-min Rain = 0
KMC5 141600Z 18015KT M06/M10 A3031 RMK A01 T10561097  RH  073%=      5-min Rain = 0
KMC5 141601Z 17013KT M06/M10 A3031 RMK A01 T10561097  RH  073%=      5-min Rain = 0
KMC5 141602Z 18015KT M06/M10 A3031 RMK A01 T10571097  RH  073%=      5-min Rain = 0
KMC5 141603Z 18015KT M06/M10 A3032 RMK A01 T10571098  RH  073%=      5-min Rain = 0
KMC5 141604Z 18013KT M06/M10 A3032 RMK A01 T10581098  RH  073%=      5-min Rain = 0
KMC5 141605Z 18014KT M06/M10 A3032 RMK A01 T10571096  RH  074%=      5-min Rain = 0
KMC5 141606Z 17013G18KT M06/M09 A3032 RMK A01 T10551094  RH  074%=      5-min Rain = 0
KMC5 141607Z 18015KT M05/M09 A3032 RMK A01 T10541094  RH  073%=      5-min Rain = 0
KMC5 141608Z 18016KT M05/M10 A3032 RMK A01 T10541095  RH  073%=      5-min Rain = 0
KMC5 141609Z 18015KT M06/M09 A3032 RMK A01 T10551094  RH  074%=      5-min Rain = 0
KMC5 141610Z 17016KT M06/M10 A3032 RMK A01 T10551095  RH  074%=      5-min Rain = 0
KMC5 141611Z 17015KT M06/M09 A3032 RMK A01 T10551094  RH  074%=      5-min Rain = 0
KMC5 141612Z 18014KT M06/M10 A3032 RMK A01 T10561095  RH  074%=      5-min Rain = 0
KMC5 141613Z 17017KT M06/M10 A3032 RMK A01 T10561095  RH  074%=      5-min Rain = 0
KMC5 141614Z 18017KT M06/M09 A3031 RMK A01 T10551094  RH  074%=      5-min Rain = 0
KMC5 141615Z 18015KT M06/M09 A3032 RMK A01 T10561094  RH  074%=      5-min Rain = 0
KMC5 141616Z 17017KT M06/M10 A3031 RMK A01 T10561095  RH  074%=      5-min Rain = 0
KMC5 141617Z 18017KT M06/M10 A3031 RMK A01 T10561095  RH  074%=      5-min Rain = 0
KMC5 141618Z 19016KT M06/M10 A3031 RMK A01 T10571095  RH  075%=      5-min Rain = 0
KMC5 141619Z 19016KT M06/M09 A3031 RMK A01 T10561094  RH  075%=      5-min Rain = 0
KMC5 141620Z 19017KT M06/M10 A3031 RMK A01 T10571095  RH  074%=      5-min Rain = 0
KMC5 141621Z 18015KT M06/M10 A3031 RMK A01 T10561095  RH  074%=      5-min Rain = 0
KMC5 141622Z 18017KT M06/M09 A3031 RMK A01 T10561094  RH  074%=      5-min Rain = 0
KMC5 141623Z 19015KT M06/M10 A3031 RMK A01 T10561095  RH  074%=      5-min Rain = 0
KMC5 141624Z 20015KT M06/M10 A3031 RMK A01 T10561095  RH  074%=      5-min Rain = 0
KMC5 141625Z 19013KT M06/M10 A3031 RMK A01 T10561096  RH  073%=      5-min Rain = 0
KMC5 141626Z 18014KT M06/M10 A3031 RMK A01 T10561096  RH  073%=      5-min Rain = 0
KMC5 141627Z 18013KT M06/M10 A3031 RMK A01 T10551096  RH  073%=      5-min Rain = 0
KMC5 141628Z 17011KT M05/M09 A3031 RMK A01 T10541094  RH  073%=      5-min Rain = 0
KMC5 141629Z 17013KT M05/M09 A3031 RMK A01 T10521094  RH  073%=      5-min Rain = 0
KMC5 141630Z 18013KT M05/M10 A3031 RMK A01 T10521095  RH  072%=      5-min Rain = 0
KMC5 141631Z 18013KT M05/M09 A3031 RMK A01 T10521094  RH  072%=      5-min Rain = 0
KMC5 141632Z 18014KT M05/M09 A3031 RMK A01 T10521094  RH  072%=      5-min Rain = 0
KMC5 141633Z 18014KT M05/M10 A3031 RMK A01 T10521095  RH  072%=      5-min Rain = 0
KMC5 141634Z 18015KT M05/M09 A3031 RMK A01 T10511094  RH  072%=      5-min Rain = 0
KMC5 141635Z 17014KT M05/M09 A3031 RMK A01 T10511093  RH  072%=      5-min Rain = 0
KMC5 141636Z 18013KT M05/M09 A3031 RMK A01 T10501094  RH  072%=      5-min Rain = 0
KMC5 141637Z 18013KT M05/M09 A3031 RMK A01 T10501093  RH  072%=      5-min Rain = 0
KMC5 141638Z 18014KT M05/M09 A3031 RMK A01 T10481092  RH  071%=      5-min Rain = 0
KMC5 141639Z 18015KT M05/M09 A3031 RMK A01 T10481093  RH  070%=      5-min Rain = 0
KMC5 141640Z 18013KT M05/M09 A3031 RMK A01 T10471093  RH  070%=      5-min Rain = 0
KMC5 141641Z 18012KT M05/M09 A3031 RMK A01 T10471092  RH  071%=      5-min Rain = 0
KMC5 141642Z 20015KT M05/M09 A3031 RMK A01 T10461092  RH  070%=      5-min Rain = 0
KMC5 141643Z 19015KT M05/M09 A3031 RMK A01 T10461094  RH  069%=      5-min Rain = 0
KMC5 141644Z 20013KT M05/M10 A3031 RMK A01 T10481096  RH  069%=      5-min Rain = 0
KMC5 141645Z 19014KT M05/M09 A3031 RMK A01 T10481093  RH  071%=      5-min Rain = 0
KMC5 141646Z 19012KT M05/M09 A3031 RMK A01 T10481094  RH  070%=      5-min Rain = 0
KMC5 141647Z 19011KT M05/M09 A3031 RMK A01 T10481093  RH  071%=      5-min Rain = 0
KMC5 141648Z 18015KT M05/M09 A303 RMK A01 T10461091  RH  071%=      5-min Rain = 0
KMC5 141649Z 16015KT M05/M09 A303 RMK A01 T10471093  RH  070%=      5-min Rain = 0
KMC5 141650Z 18015KT M05/M09 A303 RMK A01 T10471093  RH  071%=      5-min Rain = 0
KMC5 141651Z 17014KT M05/M09 A303 RMK A01 T10471092  RH  071%=      5-min Rain = 0
KMC5 141652Z 18014KT M05/M09 A303 RMK A01 T10451090  RH  071%=      5-min Rain = 0
KMC5 141653Z 17014KT M04/M09 A303 RMK A01 T10441090  RH  070%=      5-min Rain = 0
KMC5 141654Z 18012KT M04/M09 A303 RMK A01 T10441091  RH  070%=      5-min Rain = 0
KMC5 141655Z 17014KT M04/M09 A303 RMK A01 T10411085  RH  071%=      5-min Rain = 0
KMC5 141656Z 17015KT M04/M09 A303 RMK A01 T10401089  RH  069%=      5-min Rain = 0
KMC5 141657Z 17014KT M04/M09 A303 RMK A01 T10421091  RH  069%=      5-min Rain = 0
KMC5 141658Z 17015KT M04/M09 A303 RMK A01 T10411088  RH  070%=      5-min Rain = 0
KMC5 141659Z 17012KT M04/M09 A303 RMK A01 T10401088  RH  070%=      5-min Rain = 0
KMC5 141700Z 18014KT M04/M09 A303 RMK A01 T10391086  RH  070%=      5-min Rain = 0
KMC5 141701Z 19017KT M04/M09 A303 RMK A01 T10381086  RH  069%=      5-min Rain = 0
KMC5 141702Z 18017KT M04/M09 A303 RMK A01 T10401088  RH  069%=      5-min Rain = 0
KMC5 141703Z 18015G20KT M04/M09 A303 RMK A01 T10411088  RH  070%=      5-min Rain = 0
KMC5 141704Z 18017KT M04/M09 A3029 RMK A01 T10411088  RH  070%=      5-min Rain = 0
KMC5 141705Z 18015KT M04/M09 A303 RMK A01 T10411087  RH  071%=      5-min Rain = 0
KMC5 141706Z 18017KT M04/M09 A3029 RMK A01 T10391085  RH  070%=      5-min Rain = 0
KMC5 141707Z 18015KT M04/M09 A303 RMK A01 T10411088  RH  070%=      5-min Rain = 0
KMC5 141708Z 18015KT M04/M09 A3029 RMK A01 T10431090  RH  070%=      5-min Rain = 0
KMC5 141709Z 19014KT M04/M09 A3029 RMK A01 T10431089  RH  070%=      5-min Rain = 0
KMC5 141710Z 18015KT M04/M09 A3029 RMK A01 T10431088  RH  071%=      5-min Rain = 0
KMC5 141711Z 17016KT M04/M09 A3029 RMK A01 T10401085  RH  071%=      5-min Rain = 0
KMC5 141712Z 18016KT M04/M09 A3029 RMK A01 T10401086  RH  071%=      5-min Rain = 0
KMC5 141713Z 18015KT M04/M08 A3029 RMK A01 T10381083  RH  071%=      5-min Rain = 0
KMC5 141714Z 18015KT M04/M08 A3029 RMK A01 T10371083  RH  071%=      5-min Rain = 0
KMC5 141715Z 18015KT M04/M09 A3029 RMK A01 T10371085  RH  070%=      5-min Rain = 0
KMC5 141716Z 18014KT M04/M09 A3029 RMK A01 T10381085  RH  070%=      5-min Rain = 0
KMC5 141717Z 18014KT M04/M08 A3029 RMK A01 T10371084  RH  069%=      5-min Rain = 0
KMC5 141718Z 17014KT M04/M09 A3029 RMK A01 T10361085  RH  069%=      5-min Rain = 0
KMC5 141719Z 17014KT M04/M08 A3028 RMK A01 T10351084  RH  069%=      5-min Rain = 0
KMC5 141720Z 17014KT M04/M09 A3028 RMK A01 T10371087  RH  068%=      5-min Rain = 0
KMC5 141721Z 17013G19KT M04/M09 A3028 RMK A01 T10381085  RH  070%=      5-min Rain = 0
KMC5 141722Z 18016KT M04/M08 A3028 RMK A01 T10351082  RH  070%=      5-min Rain = 0
KMC5 141723Z 17013KT M04/M08 A3028 RMK A01 T10351082  RH  070%=      5-min Rain = 0
KMC5 141724Z 18014G19KT M03/M08 A3028 RMK A01 T10331080  RH  070%=      5-min Rain = 0
KMC5 141725Z 17016KT M03/M08 A3028 RMK A01 T10321081  RH  069%=      5-min Rain = 0
KMC5 141726Z 18015KT M04/M09 A3028 RMK A01 T10351085  RH  068%=      5-min Rain = 0
KMC5 141727Z 18017KT M04/M08 A3028 RMK A01 T10361084  RH  069%=      5-min Rain = 0
KMC5 141728Z 18016KT M04/M08 A3028 RMK A01 T10351082  RH  070%=      5-min Rain = 0
KMC5 141729Z 18017KT M04/M08 A3028 RMK A01 T10351082  RH  070%=      5-min Rain = 0
KMC5 141730Z 18014KT M04/M08 A3028 RMK A01 T10361082  RH  070%=      5-min Rain = 0
KMC5 141731Z 19016KT M03/M08 A3028 RMK A01 T10331079  RH  071%=      5-min Rain = 0
KMC5 141732Z 19016KT M03/M08 A3028 RMK A01 T10331079  RH  071%=      5-min Rain = 0
KMC5 141733Z 19014KT M03/M08 A3028 RMK A01 T10341079  RH  071%=      5-min Rain = 0
KMC5 141734Z 19012KT M03/M08 A3028 RMK A01 T10331079  RH  071%=      5-min Rain = 0
KMC5 141735Z 16014KT M03/M08 A3028 RMK A01 T10311077  RH  071%=      5-min Rain = 0
KMC5 141736Z 19014KT M03/M08 A3028 RMK A01 T10291077  RH  070%=      5-min Rain = 0
KMC5 141737Z 18015KT M03/M08 A3028 RMK A01 T10301078  RH  069%=      5-min Rain = 0
KMC5 141738Z 18014KT M03/M08 A3028 RMK A01 T10301079  RH  069%=      5-min Rain = 0
KMC5 141739Z 18015KT M03/M08 A3028 RMK A01 T10311080  RH  069%=      5-min Rain = 0
KMC5 141740Z 18013KT M03/M08 A3028 RMK A01 T10331081  RH  069%=      5-min Rain = 0
KMC5 141741Z 18012G17KT M03/M08 A3028 RMK A01 T10301076  RH  071%=      5-min Rain = 0
KMC5 141742Z 18014KT M03/M08 A3028 RMK A01 T10271075  RH  070%=      5-min Rain = 0
KMC5 141743Z 17014KT M03/M08 A3028 RMK A01 T10281077  RH  069%=      5-min Rain = 0
KMC5 141744Z 17015KT M03/M08 A3028 RMK A01 T10291077  RH  069%=      5-min Rain = 0
KMC5 141745Z 18014KT M03/M08 A3028 RMK A01 T10301078  RH  069%=      5-min Rain = 0
KMC5 141746Z 19014KT M03/M08 A3028 RMK A01 T10301077  RH  070%=      5-min Rain = 0
KMC5 141747Z 19012KT M03/M08 A3028 RMK A01 T10301075  RH  071%=      5-min Rain = 0
KMC5 141748Z 18013KT M03/M08 A3028 RMK A01 T10291075  RH  071%=      5-min Rain = 0
KMC5 141749Z 18013KT M03/M08 A3028 RMK A01 T10291075  RH  071%=      5-min Rain = 0
KMC5 141750Z 18012KT M03/M08 A3028 RMK A01 T10281075  RH  070%=      5-min Rain = 0
KMC5 141751Z 17013KT M03/M08 A3028 RMK A01 T10291077  RH  070%=      5-min Rain = 0
KMC5 141752Z 17014KT M03/M08 A3027 RMK A01 T10291076  RH  070%=      5-min Rain = 0
KMC5 141753Z 18013KT M03/M08 A3027 RMK A01 T10291076  RH  070%=      5-min Rain = 0
KMC5 141754Z 18012KT M03/M07 A3027 RMK A01 T10261071  RH  071%=      5-min Rain = 0
KMC5 141755Z 17013KT M02/M07 A3027 RMK A01 T10231070  RH  070%=      5-min Rain = 0
KMC5 141756Z 17013KT M02/M08 A3027 RMK A01 T10241075  RH  068%=      5-min Rain = 0
KMC5 141757Z 18014KT M02/M07 A3027 RMK A01 T10231070  RH  070%=      5-min Rain = 0
KMC5 141758Z 20012KT M02/M07 A3027 RMK A01 T10201069  RH  069%=      5-min Rain = 0
KMC5 141759Z 19012KT M02/M07 A3027 RMK A01 T10231072  RH  069%=      5-min Rain = 0
KMC5 141800Z 20011KT M02/M07 A3027 RMK A01 T10231070  RH  070%=      5-min Rain = 0
KMC5 141801Z 18014KT M02/M07 A3027 RMK A01 T10191066  RH  070%=      5-min Rain = 0
KMC5 141802Z 18016KT M02/M07 A3027 RMK A01 T10211071  RH  068%=      5-min Rain = 0
KMC5 141803Z 18013KT M03/M08 A3027 RMK A01 T10251075  RH  069%=      5-min Rain = 0
KMC5 141804Z 18013KT M03/M07 A3027 RMK A01 T10251071  RH  071%=      5-min Rain = 0
KMC5 141805Z 20014KT M02/M07 A3027 RMK A01 T10231069  RH  071%=      5-min Rain = 0
KMC5 141806Z 18015KT M02/M07 A3027 RMK A01 T10241070  RH  071%=      5-min Rain = 0
KMC5 141807Z 18015KT M03/M07 A3027 RMK A01 T10251071  RH  071%=      5-min Rain = 0
KMC5 141808Z 19016KT M03/M07 A3027 RMK A01 T10251070  RH  071%=      5-min Rain = 0
KMC5 141809Z 19015KT M03/M07 A3026 RMK A01 T10251070  RH  071%=      5-min Rain = 0
KMC5 141810Z 20014KT M03/M07 A3026 RMK A01 T10251070  RH  071%=      5-min Rain = 0
KMC5 141811Z 19012KT M03/M07 A3026 RMK A01 T10261071  RH  071%=      5-min Rain = 0
KMC5 141812Z 18014KT M03/M07 A3026 RMK A01 T10251068  RH  072%=      5-min Rain = 0
KMC5 141813Z 18013KT M02/M07 A3026 RMK A01 T10241069  RH  071%=      5-min Rain = 0
KMC5 141814Z 20015KT M02/M07 A3026 RMK A01 T10211066  RH  072%=      5-min Rain = 0
KMC5 141815Z 19015KT M02/M07 A3026 RMK A01 T10221068  RH  071%=      5-min Rain = 0
KMC5 141816Z 19016KT M02/M07 A3026 RMK A01 T10241069  RH  071%=      5-min Rain = 0
KMC5 141817Z 19016KT M03/M07 A3026 RMK A01 T10261070  RH  072%=      5-min Rain = 0
KMC5 141818Z 19014KT M03/M07 A3026 RMK A01 T10261069  RH  073%=      5-min Rain = 0
KMC5 141819Z 19014KT M03/M07 A3026 RMK A01 T10251066  RH  073%=      5-min Rain = 0
KMC5 141820Z 18014KT M02/M07 A3026 RMK A01 T10241067  RH  073%=      5-min Rain = 0
KMC5 141821Z 20012G17KT M02/M06 A3026 RMK A01 T10211063  RH  073%=      5-min Rain = 0
KMC5 141822Z 19013KT M02/M06 A3025 RMK A01 T10191064  RH  071%=      5-min Rain = 0
KMC5 141823Z 20014KT M02/M06 A3025 RMK A01 T10171062  RH  072%=      5-min Rain = 0
KMC5 141824Z 19015KT M02/M06 A3025 RMK A01 T10161064  RH  070%=      5-min Rain = 0
KMC5 141825Z 19016KT M02/M07 A3025 RMK A01 T10171065  RH  070%=      5-min Rain = 0
KMC5 141826Z 19015KT M02/M07 A3025 RMK A01 T10181067  RH  069%=      5-min Rain = 0
KMC5 141827Z 20015KT M02/M07 A3025 RMK A01 T10201067  RH  070%=      5-min Rain = 0
KMC5 141828Z 20013KT M02/M07 A3025 RMK A01 T10201067  RH  070%=      5-min Rain = 0
KMC5 141829Z 19014G20KT M02/M06 A3025 RMK A01 T10171063  RH  071%=      5-min Rain = 0
KMC5 141830Z 19018KT M02/M06 A3025 RMK A01 T10151063  RH  070%=      5-min Rain = 0
KMC5 141831Z 19017KT M02/M07 A3025 RMK A01 T10171065  RH  070%=      5-min Rain = 0
KMC5 141832Z 20015G20KT M02/M06 A3025 RMK A01 T10181063  RH  071%=      5-min Rain = 0
KMC5 141833Z 20015KT M02/M06 A3025 RMK A01 T10181063  RH  072%=      5-min Rain = 0
KMC5 141834Z 19013KT M02/M06 A3025 RMK A01 T10181063  RH  071%=      5-min Rain = 0
KMC5 141835Z 19012KT M02/M06 A3024 RMK A01 T10181064  RH  071%=      5-min Rain = 0
KMC5 141836Z 20015KT M02/M06 A3024 RMK A01 T10151058  RH  072%=      5-min Rain = 0
KMC5 141837Z 21014KT M01/M06 A3024 RMK A01 T10141060  RH  071%=      5-min Rain = 0
KMC5 141838Z 21014KT M01/M06 A3024 RMK A01 T10141060  RH  071%=      5-min Rain = 0
KMC5 141839Z 21014KT M02/M06 A3024 RMK A01 T10161064  RH  070%=      5-min Rain = 0
KMC5 141840Z 20013KT M02/M06 A3024 RMK A01 T10161062  RH  071%=      5-min Rain = 0
KMC5 141841Z 19016KT M01/M06 A3024 RMK A01 T10141059  RH  071%=      5-min Rain = 0
KMC5 141842Z 19015KT M02/M06 A3024 RMK A01 T10161062  RH  071%=      5-min Rain = 0
KMC5 141843Z 21016KT M02/M06 A3024 RMK A01 T10171063  RH  071%=      5-min Rain = 0
KMC5 141844Z 21014KT M02/M06 A3024 RMK A01 T10181063  RH  071%=      5-min Rain = 0
KMC5 141845Z 20017KT M02/M06 A3024 RMK A01 T10181063  RH  072%=      5-min Rain = 0
KMC5 141846Z 21014KT M02/M06 A3024 RMK A01 T10201064  RH  072%=      5-min Rain = 0
KMC5 141847Z 21015KT M02/M06 A3024 RMK A01 T10201063  RH  073%=      5-min Rain = 0
KMC5 141848Z 20015KT M02/M06 A3023 RMK A01 T10191061  RH  073%=      5-min Rain = 0
KMC5 141849Z 19018KT M02/M06 A3023 RMK A01 T10181061  RH  073%=      5-min Rain = 0
KMC5 141850Z 19017KT M02/M06 A3023 RMK A01 T10181061  RH  073%=      5-min Rain = 0
KMC5 141851Z 20017KT M02/M06 A3023 RMK A01 T10181060  RH  073%=      5-min Rain = 0
KMC5 141852Z 20018KT M02/M06 A3023 RMK A01 T10171060  RH  073%=      5-min Rain = 0
KMC5 141853Z 21014KT M02/M06 A3023 RMK A01 T10181061  RH  072%=      5-min Rain = 0
KMC5 141854Z 20017KT M02/M06 A3023 RMK A01 T10161058  RH  073%=      5-min Rain = 0
KMC5 141855Z 19019KT M02/M06 A3023 RMK A01 T10151058  RH  072%=      5-min Rain = 0
KMC5 141856Z 19017KT M02/M06 A3023 RMK A01 T10161059  RH  072%=      5-min Rain = 0
KMC5 141857Z 20015KT M02/M06 A3023 RMK A01 T10161059  RH  072%=      5-min Rain = 0
KMC5 141858Z 21015KT M01/M06 A3023 RMK A01 T10141058  RH  072%=      5-min Rain = 0
KMC5 141859Z 21013KT M01/M06 A3023 RMK A01 T10141059  RH  072%=      5-min Rain = 0
KMC5 141900Z 21012KT M01/M06 A3023 RMK A01 T10121056  RH  072%=      5-min Rain = 0
KMC5 141901Z 19015KT M01/M06 A3023 RMK A01 T10091055  RH  071%=      5-min Rain = 0
KMC5 141902Z 19017KT M01/M06 A3022 RMK A01 T10081057  RH  070%=      5-min Rain = 0
KMC5 141903Z 19018KT M01/M06 A3022 RMK A01 T10101059  RH  069%=      5-min Rain = 0
KMC5 141904Z 19015KT M01/M06 A3022 RMK A01 T10111057  RH  071%=      5-min Rain = 0
KMC5 141905Z 19018KT M01/M06 A3022 RMK A01 T10091055  RH  071%=      5-min Rain = 0
KMC5 141906Z 19019KT M01/M06 A3022 RMK A01 T10091058  RH  070%=      5-min Rain = 0
KMC5 141907Z 19017KT M01/M06 A3022 RMK A01 T10111058  RH  071%=      5-min Rain = 0
KMC5 141908Z 20016KT M01/M06 A3022 RMK A01 T10131059  RH  071%=      5-min Rain = 0
KMC5 141909Z 19017KT M01/M06 A3022 RMK A01 T10131058  RH  072%=      5-min Rain = 0
KMC5 141910Z 20014KT M01/M06 A3022 RMK A01 T10141059  RH  071%=      5-min Rain = 0
KMC5 141911Z 18013KT M01/M06 A3022 RMK A01 T10121055  RH  072%=      5-min Rain = 0
KMC5 141912Z 18016KT M01/M05 A3022 RMK A01 T10071054  RH  071%=      5-min Rain = 0
KMC5 141913Z 18019KT M01/M06 A3021 RMK A01 T10071055  RH  070%=      5-min Rain = 0
KMC5 141914Z 19016G21KT M01/M06 A3021 RMK A01 T10071056  RH  069%=      5-min Rain = 0
KMC5 141915Z 19018KT M01/M05 A3021 RMK A01 T10061054  RH  069%=      5-min Rain = 0
KMC5 141916Z 19020KT M01/M06 A3021 RMK A01 T10071056  RH  069%=      5-min Rain = 0
KMC5 141917Z 19018KT M01/M06 A3021 RMK A01 T10111060  RH  070%=      5-min Rain = 0
KMC5 141918Z 19017KT M01/M06 A3021 RMK A01 T10111056  RH  071%=      5-min Rain = 0
KMC5 141919Z 19018KT M01/M06 A3021 RMK A01 T10091055  RH  071%=      5-min Rain = 0
KMC5 141920Z 20017KT M01/M06 A3021 RMK A01 T10101056  RH  071%=      5-min Rain = 0
KMC5 141921Z 21016KT M01/M06 A3021 RMK A01 T10111057  RH  071%=      5-min Rain = 0
KMC5 141922Z 20017KT M01/M06 A3021 RMK A01 T10111056  RH  071%=      5-min Rain = 0
KMC5 141923Z 20015KT M01/M06 A3021 RMK A01 T10091056  RH  070%=      5-min Rain = 0
KMC5 141924Z 21015KT M01/M06 A3021 RMK A01 T10101056  RH  071%=      5-min Rain = 0
KMC5 141925Z 21015KT M01/M06 A302 RMK A01 T10081055  RH  071%=      5-min Rain = 0
KMC5 141926Z 20014KT M01/M05 A302 RMK A01 T10061053  RH  070%=      5-min Rain = 0
KMC5 141927Z 19018G24KT M00/M05 A302 RMK A01 T10031052  RH  069%=      5-min Rain = 0
KMC5 141928Z 19020KT M01/M06 A302 RMK A01 T10051056  RH  069%=      5-min Rain = 0
KMC5 141929Z 20018KT M01/M06 A302 RMK A01 T10091057  RH  070%=      5-min Rain = 0
KMC5 141930Z 20015KT M01/M06 A302 RMK A01 T10101056  RH  071%=      5-min Rain = 0
KMC5 141931Z 19016KT M01/M05 A302 RMK A01 T10081053  RH  072%=      5-min Rain = 0
KMC5 141932Z 20015KT M01/M05 A302 RMK A01 T10071052  RH  071%=      5-min Rain = 0
KMC5 141933Z 20013KT M01/M05 A302 RMK A01 T10051053  RH  070%=      5-min Rain = 0
KMC5 141934Z 19016KT M01/M05 A302 RMK A01 T10051052  RH  070%=      5-min Rain = 0
KMC5 141935Z 20017KT M00/M05 A302 RMK A01 T10041052  RH  070%=      5-min Rain = 0
KMC5 141936Z 19016KT M01/M05 A302 RMK A01 T10051053  RH  070%=      5-min Rain = 0
KMC5 141937Z 20016KT M00/M05 A302 RMK A01 T10031050  RH  071%=      5-min Rain = 0
KMC5 141938Z 20016KT M01/M06 A302 RMK A01 T10051055  RH  069%=      5-min Rain = 0
KMC5 141939Z 20017KT M01/M05 A302 RMK A01 T10061054  RH  070%=      5-min Rain = 0
KMC5 141940Z 19015KT M00/M05 A302 RMK A01 T10031051  RH  070%=      5-min Rain = 0
KMC5 141941Z 20017KT M00/M05 A302 RMK A01 T10011051  RH  069%=      5-min Rain = 0
KMC5 141942Z 18019KT M00/M05 A302 RMK A01 T10011054  RH  067%=      5-min Rain = 0
KMC5 141943Z 18019KT M00/M06 A302 RMK A01 T10041058  RH  067%=      5-min Rain = 0
KMC5 141944Z 19017KT M01/M06 A302 RMK A01 T10071058  RH  068%=      5-min Rain = 0
KMC5 141945Z 20017KT M01/M06 A3019 RMK A01 T10071056  RH  069%=      5-min Rain = 0
KMC5 141946Z 19017KT M00/M05 A3019 RMK A01 T10041052  RH  070%=      5-min Rain = 0
KMC5 141947Z 19016KT M00/M05 A3019 RMK A01 T10011052  RH  068%=      5-min Rain = 0
KMC5 141948Z 19016KT M00/M05 A3019 RMK A01 T10021054  RH  068%=      5-min Rain = 0
KMC5 141949Z 19015KT M00/M05 A3019 RMK A01 T10011052  RH  068%=      5-min Rain = 0
KMC5 141950Z 19014KT 00/05 A3019 RMK A01 T00000-51  RH  069%=      5-min Rain = 0
KMC5 141951Z 18018KT 00/M05 A3019 RMK A01 T00031049  RH  068%=      5-min Rain = 0
KMC5 141952Z 18018KT 00/06 A3019 RMK A01 T00000-56  RH  066%=      5-min Rain = 0
KMC5 141953Z 19017G23KT M00/M05 A3019 RMK A01 T10021053  RH  068%=      5-min Rain = 0
KMC5 141954Z 20017KT M00/M05 A3019 RMK A01 T10011052  RH  069%=      5-min Rain = 0
KMC5 141955Z 21016KT M00/M05 A3019 RMK A01 T10031053  RH  069%=      5-min Rain = 0
KMC5 141956Z 19015KT M00/M05 A3019 RMK A01 T10011049  RH  070%=      5-min Rain = 0
KMC5 141957Z 19017KT 00/M05 A3019 RMK A01 T00041047  RH  069%=      5-min Rain = 0
KMC5 141958Z 19017KT 00/M05 A3019 RMK A01 T00011054  RH  066%=      5-min Rain = 0
KMC5 141959Z 19015KT M00/M06 A3019 RMK A01 T10031055  RH  068%=      5-min Rain = 0
KMC5 142000Z 19017KT M00/M05 A3019 RMK A01 T10011049  RH  070%=      5-min Rain = 0
KMC5 142001Z 19017KT M00/M05 A3019 RMK A01 T10011052  RH  069%=      5-min Rain = 0
KMC5 142002Z 20020G25KT M00/M05 A3019 RMK A01 T10041052  RH  070%=      5-min Rain = 0
KMC5 142003Z 21019G24KT M01/M05 A3019 RMK A01 T10051052  RH  070%=      5-min Rain = 0
KMC5 142004Z 21015G20KT M01/M05 A3018 RMK A01 T10051050  RH  071%=      5-min Rain = 0
KMC5 142005Z 20017KT M00/M05 A3018 RMK A01 T10041049  RH  072%=      5-min Rain = 0
KMC5 142006Z 19021KT M00/M05 A3018 RMK A01 T10021049  RH  071%=      5-min Rain = 0
KMC5 142007Z 20020KT M01/M05 A3018 RMK A01 T10051053  RH  070%=      5-min Rain = 0
KMC5 142008Z 20018G23KT M01/M05 A3018 RMK A01 T10061050  RH  072%=      5-min Rain = 0
KMC5 142009Z 21015KT M00/M05 A3018 RMK A01 T10031046  RH  072%=      5-min Rain = 0
KMC5 142010Z 20015KT 00/M04 A3018 RMK A01 T00031043  RH  071%=      5-min Rain = 0
KMC5 142011Z 20014G19KT 01/M05 A3018 RMK A01 T00051045  RH  069%=      5-min Rain = 0
KMC5 142012Z 20015KT 01/M05 A3018 RMK A01 T00061045  RH  069%=      5-min Rain = 0
KMC5 142013Z 19019KT 01/M04 A3018 RMK A01 T00071043  RH  069%=      5-min Rain = 0
KMC5 142014Z 18020KT 01/M05 A3017 RMK A01 T00061047  RH  068%=      5-min Rain = 0
KMC5 142015Z 20020KT 00/M05 A3017 RMK A01 T00041048  RH  068%=      5-min Rain = 0
KMC5 142016Z 20019KT 00/M05 A3017 RMK A01 T00011050  RH  068%=      5-min Rain = 0
KMC5 142017Z 20014G20KT 00/M05 A3017 RMK A01 T00011048  RH  070%=      5-min Rain = 0
KMC5 142018Z 20015KT 00/M05 A3017 RMK A01 T00031045  RH  070%=      5-min Rain = 0
KMC5 142019Z 19020KT 00/M05 A3017 RMK A01 T00041048  RH  068%=      5-min Rain = 0
KMC5 142020Z 18020KT 00/M05 A3017 RMK A01 T00021050  RH  068%=      5-min Rain = 0
KMC5 142021Z 20018KT 00/M05 A3017 RMK A01 T00011048  RH  070%=      5-min Rain = 0
KMC5 142022Z 20016KT 00/M05 A3017 RMK A01 T00011046  RH  071%=      5-min Rain = 0
KMC5 142023Z 19018KT 01/M04 A3017 RMK A01 T00061042  RH  070%=      5-min Rain = 0
KMC5 142024Z 20019KT 01/M05 A3017 RMK A01 T00061046  RH  068%=      5-min Rain = 0
KMC5 142025Z 21019KT 00/M05 A3017 RMK A01 T00031048  RH  068%=      5-min Rain = 0
KMC5 142026Z 20016KT 00/M05 A3017 RMK A01 T00021048  RH  069%=      5-min Rain = 0
KMC5 142027Z 18021G26KT 01/M04 A3017 RMK A01 T00061043  RH  070%=      5-min Rain = 0
KMC5 142028Z 19021KT 00/M05 A3017 RMK A01 T00041049  RH  068%=      5-min Rain = 0
KMC5 142029Z 18018KT M00/M05 A3017 RMK A01 T10011051  RH  069%=      5-min Rain = 0
KMC5 142030Z 19017KT M00/M05 A3017 RMK A01 T10011048  RH  071%=      5-min Rain = 0
KMC5 142031Z 19017KT M00/M05 A3017 RMK A01 T10011048  RH  071%=      5-min Rain = 0
KMC5 142032Z 19019KT 00/M05 A3017 RMK A01 T00021045  RH  071%=      5-min Rain = 0
KMC5 142033Z 19017KT 00/M05 A3017 RMK A01 T00021045  RH  070%=      5-min Rain = 0
KMC5 142034Z 19019KT 00/M04 A3017 RMK A01 T00031044  RH  071%=      5-min Rain = 0
KMC5 142035Z 18022KT 00/M05 A3017 RMK A01 T00041045  RH  070%=      5-min Rain = 0
KMC5 142036Z 18019KT 00/M05 A3017 RMK A01 T00041047  RH  069%=      5-min Rain = 0
KMC5 142037Z 18020G25KT 00/M05 A3017 RMK A01 T00031046  RH  069%=      5-min Rain = 0
KMC5 142038Z 18021KT 00/M05 A3016 RMK A01 T00041046  RH  069%=      5-min Rain = 0
KMC5 142039Z 19022KT 00/M05 A3016 RMK A01 T00011048  RH  070%=      5-min Rain = 0
KMC5 142040Z 19021KT M00/M05 A3016 RMK A01 T10011046  RH  072%=      5-min Rain = 0
KMC5 142041Z 20019KT M00/M05 A3016 RMK A01 T10011046  RH  072%=      5-min Rain = 0
KMC5 142042Z 20017KT M00/M05 A3016 RMK A01 T10021046  RH  072%=      5-min Rain = 0
KMC5 142043Z 20019G24KT M00/M05 A3016 RMK A01 T10011045  RH  072%=      5-min Rain = 0
KMC5 142044Z 19019KT 00/05 A3016 RMK A01 T00-00-45  RH  072%=      5-min Rain = 0
KMC5 142045Z 20020KT 00/04 A3016 RMK A01 T00000-43  RH  073%=      5-min Rain = 0
KMC5 142046Z 20018KT 00/M04 A3016 RMK A01 T00011043  RH  072%=      5-min Rain = 0
KMC5 142047Z 20020KT 00/M04 A3016 RMK A01 T00031042  RH  072%=      5-min Rain = 0
KMC5 142048Z 20022KT 00/M04 A3016 RMK A01 T00031044  RH  071%=      5-min Rain = 0
KMC5 142049Z 19021KT 00/M05 A3016 RMK A01 T00021045  RH  071%=      5-min Rain = 0
KMC5 142050Z 19018KT 00/M05 A3016 RMK A01 T00011045  RH  071%=      5-min Rain = 0
KMC5 142051Z 19022KT 00/04 A3016 RMK A01 T00000-43  RH  072%=      5-min Rain = 0
KMC5 142052Z 18021KT 00/04 A3016 RMK A01 T00000-44  RH  072%=      5-min Rain = 0
KMC5 142053Z 20017KT 00/M04 A3016 RMK A01 T00011042  RH  073%=      5-min Rain = 0
KMC5 142054Z 21017G23KT 01/M04 A3016 RMK A01 T00051039  RH  072%=      5-min Rain = 0
KMC5 142055Z 20018KT 01/M04 A3016 RMK A01 T00071041  RH  070%=      5-min Rain = 0
KMC5 142056Z 20019G24KT 00/M04 A3016 RMK A01 T00041044  RH  070%=      5-min Rain = 0
KMC5 142057Z 21018G24KT 00/M04 A3016 RMK A01 T00041041  RH  072%=      5-min Rain = 0
KMC5 142058Z 20020KT 01/M04 A3016 RMK A01 T00071038  RH  072%=      5-min Rain = 0
KMC5 142059Z 20020KT 01/M04 A3015 RMK A01 T00061041  RH  070%=      5-min Rain = 0
KMC5 142100Z 20016G22KT 00/M04 A3016 RMK A01 T00031044  RH  071%=      5-min Rain = 0
KMC5 142101Z 19019KT 01/M04 A3016 RMK A01 T00051040  RH  072%=      5-min Rain = 0
KMC5 142102Z 19017KT 01/M04 A3016 RMK A01 T00071041  RH  070%=      5-min Rain = 0
KMC5 142103Z 20017KT 01/M04 A3016 RMK A01 T00081042  RH  069%=      5-min Rain = 0
KMC5 142104Z 19015KT 01/M04 A3015 RMK A01 T00061043  RH  070%=      5-min Rain = 0
KMC5 142105Z 18018KT 01/M04 A3015 RMK A01 T00101038  RH  071%=      5-min Rain = 0
KMC5 142106Z 18017KT 01/M04 A3015 RMK A01 T00121040  RH  068%=      5-min Rain = 0
KMC5 142107Z 19015KT 01/M04 A3015 RMK A01 T00111041  RH  068%=      5-min Rain = 0
KMC5 142108Z 19016KT 01/M04 A3015 RMK A01 T00111040  RH  069%=      5-min Rain = 0
KMC5 142109Z 19018KT 01/M04 A3015 RMK A01 T00121040  RH  068%=      5-min Rain = 0
KMC5 142110Z 19021KT 01/M04 A3015 RMK A01 T00111041  RH  068%=      5-min Rain = 0
KMC5 142111Z 20017KT 01/M04 A3015 RMK A01 T00111040  RH  069%=      5-min Rain = 0
KMC5 142112Z 19015KT 02/M04 A3015 RMK A01 T00151035  RH  069%=      5-min Rain = 0
KMC5 142113Z 18018KT 02/M04 A3015 RMK A01 T00201036  RH  067%=      5-min Rain = 0
KMC5 142114Z 19020KT 02/M04 A3015 RMK A01 T00171040  RH  066%=      5-min Rain = 0
KMC5 142115Z 19017KT 02/M04 A3015 RMK A01 T00151039  RH  067%=      5-min Rain = 0
KMC5 142116Z 20020G26KT 02/M04 A3015 RMK A01 T00171037  RH  067%=      5-min Rain = 0
KMC5 142117Z 20019KT 02/M04 A3014 RMK A01 T00161039  RH  067%=      5-min Rain = 0
KMC5 142118Z 20016G21KT 02/M04 A3015 RMK A01 T00161039  RH  067%=      5-min Rain = 0
KMC5 142119Z 19020KT 02/M03 A3015 RMK A01 T00191034  RH  068%=      5-min Rain = 0
KMC5 142120Z 20020KT 02/M04 A3015 RMK A01 T00191038  RH  066%=      5-min Rain = 0
KMC5 142121Z 19020KT 02/M04 A3014 RMK A01 T00151039  RH  067%=      5-min Rain = 0
KMC5 142122Z 19019KT 01/M04 A3015 RMK A01 T00121040  RH  068%=      5-min Rain = 0
KMC5 142123Z 20016KT 01/M04 A3015 RMK A01 T00091041  RH  069%=      5-min Rain = 0
KMC5 142124Z 19020KT 01/M04 A3015 RMK A01 T00131036  RH  070%=      5-min Rain = 0
KMC5 142125Z 20021KT 01/M04 A3014 RMK A01 T00141037  RH  069%=      5-min Rain = 0
KMC5 142126Z 20021KT 01/M04 A3014 RMK A01 T00141039  RH  068%=      5-min Rain = 0
KMC5 142127Z 19016KT 01/M04 A3014 RMK A01 T00141037  RH  069%=      5-min Rain = 0
KMC5 142128Z 19016KT 02/M04 A3014 RMK A01 T00161037  RH  068%=      5-min Rain = 0
KMC5 142129Z 20014KT 02/M04 A3014 RMK A01 T00171035  RH  069%=      5-min Rain = 0
KMC5 142130Z 18014KT 02/M03 A3014 RMK A01 T00231029  RH  068%=      5-min Rain = 0
KMC5 142131Z 19018KT 03/M03 A3014 RMK A01 T00251033  RH  065%=      5-min Rain = 0
KMC5 142132Z 20020G25KT 03/M03 A3014 RMK A01 T00251033  RH  066%=      5-min Rain = 0
KMC5 142133Z 20019KT 02/M03 A3014 RMK A01 T00241034  RH  066%=      5-min Rain = 0
KMC5 142134Z 19016KT 02/M04 A3014 RMK A01 T00201037  RH  066%=      5-min Rain = 0
KMC5 142135Z 18019KT 02/M03 A3014 RMK A01 T00201033  RH  068%=      5-min Rain = 0
KMC5 142136Z 19019KT 02/M03 A3014 RMK A01 T00211034  RH  067%=      5-min Rain = 0
KMC5 142137Z 20018KT 02/M04 A3014 RMK A01 T00201035  RH  067%=      5-min Rain = 0
KMC5 142138Z 19018KT 02/M04 A3013 RMK A01 T00201035  RH  067%=      5-min Rain = 0
KMC5 142139Z 18018KT 02/M03 A3013 RMK A01 T00241030  RH  067%=      5-min Rain = 0
KMC5 142140Z 18020KT 03/M03 A3013 RMK A01 T00251034  RH  065%=      5-min Rain = 0
KMC5 142141Z 19018KT 02/M04 A3013 RMK A01 T00241035  RH  065%=      5-min Rain = 0
KMC5 142142Z 19020KT 02/M03 A3013 RMK A01 T00231034  RH  066%=      5-min Rain = 0
KMC5 142143Z 19019KT 02/M04 A3013 RMK A01 T00231035  RH  066%=      5-min Rain = 0
KMC5 142144Z 18021KT 02/M03 A3013 RMK A01 T00241034  RH  066%=      5-min Rain = 0
KMC5 142145Z 18020KT 02/M04 A3013 RMK A01 T00241036  RH  065%=      5-min Rain = 0
KMC5 142146Z 19018KT 02/M04 A3013 RMK A01 T00231035  RH  065%=      5-min Rain = 0
KMC5 142147Z 19018KT 02/M03 A3013 RMK A01 T00241034  RH  066%=      5-min Rain = 0
KMC5 142148Z 19018KT 03/M03 A3013 RMK A01 T00261033  RH  065%=      5-min Rain = 0
KMC5 142149Z 19022KT 03/M03 A3013 RMK A01 T00261033  RH  065%=      5-min Rain = 0
KMC5 142150Z 20019KT 03/M04 A3012 RMK A01 T00251035  RH  065%=      5-min Rain = 0
KMC5 142151Z 20019KT 03/M03 A3013 RMK A01 T00251033  RH  065%=      5-min Rain = 0
KMC5 142152Z 19014G19KT 03/M03 A3013 RMK A01 T00281030  RH  066%=      5-min Rain = 0
KMC5 142153Z 18016G22KT 03/M03 A3013 RMK A01 T00331027  RH  065%=      5-min Rain = 0
KMC5 142154Z 18021KT 03/M03 A3012 RMK A01 T00341031  RH  062%=      5-min Rain = 0
KMC5 142155Z 19020KT 03/M04 A3013 RMK A01 T00281035  RH  063%=      5-min Rain = 0
KMC5 142156Z 19019KT 03/M04 A3013 RMK A01 T00261035  RH  064%=      5-min Rain = 0
KMC5 142157Z 19019KT 02/M04 A3013 RMK A01 T00231035  RH  065%=      5-min Rain = 0
KMC5 142158Z 19021KT 02/M03 A3012 RMK A01 T00241033  RH  066%=      5-min Rain = 0
KMC5 142159Z 19019KT 03/M03 A3012 RMK A01 T00251032  RH  066%=      5-min Rain = 0
KMC5 142200Z 18019G24KT 03/M03 A3012 RMK A01 T00251031  RH  066%=      5-min Rain = 0
KMC5 142201Z 18021G27KT 03/M03 A3012 RMK A01 T00271031  RH  065%=      5-min Rain = 0
KMC5 142202Z 18022G27KT 03/M03 A3012 RMK A01 T00271031  RH  066%=      5-min Rain = 0
KMC5 142203Z 19021KT 03/M03 A3012 RMK A01 T00271030  RH  066%=      5-min Rain = 0
KMC5 142204Z 19022KT 03/M03 A3012 RMK A01 T00261030  RH  066%=      5-min Rain = 0
KMC5 142205Z 17021KT 02/M03 A3012 RMK A01 T00241030  RH  067%=      5-min Rain = 0
KMC5 142206Z 19021KT 03/M03 A3012 RMK A01 T00271028  RH  067%=      5-min Rain = 0
KMC5 142207Z 19019KT 03/M03 A3012 RMK A01 T00281028  RH  067%=      5-min Rain = 0
KMC5 142208Z 20020KT 03/M03 A3012 RMK A01 T00281028  RH  067%=      5-min Rain = 0
KMC5 142209Z 20022KT 03/M03 A3012 RMK A01 T00281028  RH  066%=      5-min Rain = 0
KMC5 142210Z 20024KT 03/M03 A3012 RMK A01 T00271028  RH  067%=      5-min Rain = 0
KMC5 142211Z 19021KT 03/M03 A3012 RMK A01 T00261028  RH  068%=      5-min Rain = 0
KMC5 142212Z 19020KT 03/M03 A3012 RMK A01 T00251027  RH  068%=      5-min Rain = 0
KMC5 142213Z 19020KT 03/M03 A3012 RMK A01 T00261027  RH  068%=      5-min Rain = 0
KMC5 142214Z 19016KT 03/M03 A3012 RMK A01 T00271025  RH  069%=      5-min Rain = 0
KMC5 142215Z 18017KT 03/M03 A3012 RMK A01 T00311025  RH  067%=      5-min Rain = 0
KMC5 142216Z 18018KT 03/M03 A3012 RMK A01 T00311027  RH  066%=      5-min Rain = 0
KMC5 142217Z 18017KT 03/M03 A3012 RMK A01 T00301027  RH  067%=      5-min Rain = 0
KMC5 142218Z 18019KT 03/M03 A3012 RMK A01 T00291027  RH  066%=      5-min Rain = 0
KMC5 142219Z 18017G22KT 03/M03 A3012 RMK A01 T00271029  RH  066%=      5-min Rain = 0
KMC5 142220Z 17021G26KT 03/M03 A3012 RMK A01 T00271028  RH  067%=      5-min Rain = 0
KMC5 142221Z 17020KT 03/M03 A3012 RMK A01 T00251031  RH  067%=      5-min Rain = 0
KMC5 142222Z 17019KT 03/M03 A3012 RMK A01 T00251029  RH  067%=      5-min Rain = 0
KMC5 142223Z 17017KT 03/M03 A3012 RMK A01 T00251030  RH  067%=      5-min Rain = 0
KMC5 142224Z 18016KT 02/M03 A3012 RMK A01 T00241028  RH  068%=      5-min Rain = 0
KMC5 142225Z 19016KT 03/M03 A3012 RMK A01 T00261027  RH  068%=      5-min Rain = 0
KMC5 142226Z 18015KT 03/M03 A3012 RMK A01 T00261026  RH  068%=      5-min Rain = 0
KMC5 142227Z 19013KT 03/M02 A3012 RMK A01 T00271024  RH  069%=      5-min Rain = 0
KMC5 142228Z 18013G18KT 03/M02 A3012 RMK A01 T00331020  RH  068%=      5-min Rain = 0
KMC5 142229Z 18014KT 03/M02 A3012 RMK A01 T00341023  RH  066%=      5-min Rain = 0
KMC5 142230Z 18016KT 03/M02 A3012 RMK A01 T00341024  RH  066%=      5-min Rain = 0
KMC5 142231Z 19014KT 03/M02 A3012 RMK A01 T00341023  RH  066%=      5-min Rain = 0
KMC5 142232Z 19018G24KT 03/M02 A3011 RMK A01 T00341021  RH  067%=      5-min Rain = 0
KMC5 142233Z 20020G25KT 03/M02 A3011 RMK A01 T00341022  RH  067%=      5-min Rain = 0
KMC5 142234Z 20019KT 03/M02 A3011 RMK A01 T00331022  RH  067%=      5-min Rain = 0
KMC5 142235Z 20019KT 03/M02 A3011 RMK A01 T00321022  RH  068%=      5-min Rain = 0
KMC5 142236Z 18017KT 03/M02 A3011 RMK A01 T00321021  RH  068%=      5-min Rain = 0
KMC5 142237Z 19017KT 03/M02 A3011 RMK A01 T00321021  RH  068%=      5-min Rain = 0
KMC5 142238Z 20017KT 03/M02 A3011 RMK A01 T00311020  RH  069%=      5-min Rain = 0
KMC5 142239Z 20020KT 03/M02 A3011 RMK A01 T00331019  RH  068%=      5-min Rain = 0
KMC5 142240Z 20016KT 03/M02 A3011 RMK A01 T00321020  RH  068%=      5-min Rain = 0
KMC5 142241Z 19020KT 03/M02 A3011 RMK A01 T00321020  RH  068%=      5-min Rain = 0
KMC5 142242Z 19020KT 03/M02 A3011 RMK A01 T00301021  RH  069%=      5-min Rain = 0
KMC5 142243Z 20018KT 03/M02 A3011 RMK A01 T00291021  RH  069%=      5-min Rain = 0
KMC5 142244Z 21018KT 03/M02 A3011 RMK A01 T00301020  RH  070%=      5-min Rain = 0
KMC5 142245Z 19019KT 03/M02 A3011 RMK A01 T00311020  RH  069%=      5-min Rain = 0
KMC5 142246Z 19020G25KT 03/M02 A3011 RMK A01 T00311020  RH  069%=      5-min Rain = 0
KMC5 142247Z 19021KT 03/M02 A3011 RMK A01 T00301022  RH  069%=      5-min Rain = 0
KMC5 142248Z 20016KT 03/M02 A3011 RMK A01 T00281022  RH  070%=      5-min Rain = 0
KMC5 142249Z 20015KT 03/M02 A3011 RMK A01 T00301019  RH  071%=      5-min Rain = 0
KMC5 142250Z 19020KT 03/M02 A3011 RMK A01 T00321019  RH  069%=      5-min Rain = 0
KMC5 142251Z 19018KT 03/M02 A3011 RMK A01 T00301021  RH  069%=      5-min Rain = 0
KMC5 142252Z 20020G26KT 03/M02 A3011 RMK A01 T00301021  RH  070%=      5-min Rain = 0
KMC5 142253Z 19020KT 03/M02 A3011 RMK A01 T00281022  RH  070%=      5-min Rain = 0
KMC5 142254Z 20019KT 03/M02 A3011 RMK A01 T00271022  RH  070%=      5-min Rain = 0
KMC5 142255Z 19021KT 03/M02 A3011 RMK A01 T00271022  RH  070%=      5-min Rain = 0
KMC5 142256Z 20019KT 03/M02 A3011 RMK A01 T00251022  RH  071%=      5-min Rain = 0
KMC5 142257Z 19021KT 03/M02 A3011 RMK A01 T00251022  RH  071%=      5-min Rain = 0
KMC5 142258Z 19017KT 03/M02 A3011 RMK A01 T00251022  RH  071%=      5-min Rain = 0
KMC5 142259Z 19016KT 03/M02 A3011 RMK A01 T00251021  RH  072%=      5-min Rain = 0
KMC5 142300Z 20016KT 03/M02 A3011 RMK A01 T00261020  RH  072%=      5-min Rain = 0
KMC5 142301Z 20016KT 03/M02 A3011 RMK A01 T00261020  RH  071%=      5-min Rain = 0
KMC5 142302Z 20018KT 03/M02 A3011 RMK A01 T00271020  RH  071%=      5-min Rain = 0
KMC5 142303Z 20019KT 03/M02 A3011 RMK A01 T00271020  RH  071%=      5-min Rain = 0
KMC5 142304Z 20019KT 03/M02 A3011 RMK A01 T00271020  RH  071%=      5-min Rain = 0
KMC5 142305Z 20016KT 03/M02 A3011 RMK A01 T00261020  RH  072%=      5-min Rain = 0
KMC5 142306Z 19015KT 03/M02 A3011 RMK A01 T00261019  RH  072%=      5-min Rain = 0
KMC5 142307Z 19015KT 03/M02 A3011 RMK A01 T00271018  RH  072%=      5-min Rain = 0
KMC5 142308Z 20016KT 03/M02 A3011 RMK A01 T00281018  RH  072%=      5-min Rain = 0
KMC5 142309Z 20017KT 03/M02 A3011 RMK A01 T00281020  RH  071%=      5-min Rain = 0
KMC5 142310Z 19020KT 03/M02 A3011 RMK A01 T00281020  RH  071%=      5-min Rain = 0
KMC5 142311Z 19022KT 03/M02 A3011 RMK A01 T00261021  RH  071%=      5-min Rain = 0
KMC5 142312Z 19017KT 03/M02 A3011 RMK A01 T00251021  RH  072%=      5-min Rain = 0
KMC5 142313Z 20017KT 03/M02 A3011 RMK A01 T00251020  RH  072%=      5-min Rain = 0
KMC5 142314Z 20018KT 03/M02 A301 RMK A01 T00261020  RH  072%=      5-min Rain = 0
KMC5 142315Z 19017KT 03/M02 A3011 RMK A01 T00271020  RH  072%=      5-min Rain = 0
KMC5 142316Z 20017KT 03/M02 A301 RMK A01 T00261020  RH  072%=      5-min Rain = 0
KMC5 142317Z 19017KT 03/M02 A301 RMK A01 T00261020  RH  072%=      5-min Rain = 0
KMC5 142318Z 20018KT 03/M02 A301 RMK A01 T00261019  RH  072%=      5-min Rain = 0
KMC5 142319Z 20018KT 03/M02 A301 RMK A01 T00261020  RH  072%=      5-min Rain = 0
KMC5 142320Z 19016KT 03/M02 A301 RMK A01 T00261019  RH  072%=      5-min Rain = 0
KMC5 142321Z 19018KT 03/M02 A301 RMK A01 T00261019  RH  072%=      5-min Rain = 0
KMC5 142322Z 19017KT 03/M02 A301 RMK A01 T00261019  RH  072%=      5-min Rain = 0
KMC5 142323Z 19020KT 03/M02 A301 RMK A01 T00261019  RH  072%=      5-min Rain = 0
KMC5 142324Z 19020KT 03/M02 A301 RMK A01 T00261020  RH  072%=      5-min Rain = 0
KMC5 142325Z 19017KT 03/M02 A301 RMK A01 T00251020  RH  072%=      5-min Rain = 0
KMC5 142326Z 19019KT 03/M02 A301 RMK A01 T00251019  RH  073%=      5-min Rain = 0
KMC5 142327Z 19020KT 02/M02 A301 RMK A01 T00241020  RH  073%=      5-min Rain = 0
KMC5 142328Z 19019KT 02/M02 A301 RMK A01 T00241020  RH  073%=      5-min Rain = 0
KMC5 142329Z 19017KT 02/M02 A301 RMK A01 T00231020  RH  073%=      5-min Rain = 0
KMC5 142330Z 20016KT 02/M02 A3011 RMK A01 T00231020  RH  074%=      5-min Rain = 0
KMC5 142331Z 20014KT 02/M02 A301 RMK A01 T00241019  RH  074%=      5-min Rain = 0
KMC5 142332Z 20017KT 02/M02 A3011 RMK A01 T00241019  RH  073%=      5-min Rain = 0
KMC5 142333Z 20020KT 02/M02 A301 RMK A01 T00241019  RH  073%=      5-min Rain = 0
KMC5 142334Z 20019G24KT 02/M02 A3011 RMK A01 T00231020  RH  073%=      5-min Rain = 0
KMC5 142335Z 20021KT 02/M02 A301 RMK A01 T00231020  RH  073%=      5-min Rain = 0
KMC5 142336Z 20019G24KT 02/M02 A3011 RMK A01 T00221020  RH  073%=      5-min Rain = 0
KMC5 142337Z 20019KT 02/M02 A3011 RMK A01 T00221020  RH  074%=      5-min Rain = 0
KMC5 142338Z 20017KT 02/M02 A3011 RMK A01 T00221019  RH  074%=      5-min Rain = 0
KMC5 142339Z 19019KT 02/M02 A3011 RMK A01 T00221020  RH  074%=      5-min Rain = 0
KMC5 142340Z 20021KT 02/M02 A301 RMK A01 T00211020  RH  074%=      5-min Rain = 0
KMC5 142341Z 20016KT 02/M02 A3011 RMK A01 T00211020  RH  074%=      5-min Rain = 0
KMC5 142342Z 20016KT 02/M02 A3011 RMK A01 T00201020  RH  075%=      5-min Rain = 0
KMC5 142343Z 20018KT 02/M02 A3011 RMK A01 T00211019  RH  075%=      5-min Rain = 0
KMC5 142344Z 21018KT 02/M02 A3011 RMK A01 T00211020  RH  074%=      5-min Rain = 0
KMC5 142345Z 20019KT 02/M02 A301 RMK A01 T00201020  RH  075%=      5-min Rain = 0
KMC5 142346Z 21019KT 02/M02 A3011 RMK A01 T00191020  RH  075%=      5-min Rain = 0
KMC5 142347Z 20016KT 02/M02 A3011 RMK A01 T00191020  RH  075%=      5-min Rain = 0
KMC5 142348Z 21016KT 02/M02 A3011 RMK A01 T00191020  RH  076%=      5-min Rain = 0
KMC5 142349Z 21018G23KT 02/M02 A3011 RMK A01 T00191020  RH  076%=      5-min Rain = 0
KMC5 142350Z 20019KT 02/M02 A301 RMK A01 T00191020  RH  076%=      5-min Rain = 0
KMC5 142351Z 20017KT 02/M02 A3011 RMK A01 T00191020  RH  076%=      5-min Rain = 0
KMC5 142352Z 20016KT 02/M02 A3011 RMK A01 T00181020  RH  076%=      5-min Rain = 0
KMC5 142353Z 19018KT 02/M02 A301 RMK A01 T00181020  RH  076%=      5-min Rain = 0
KMC5 142354Z 20018KT 02/M02 A301 RMK A01 T00171020  RH  076%=      5-min Rain = 0
KMC5 142355Z 20016KT 02/M02 A301 RMK A01 T00171020  RH  076%=      5-min Rain = 0
KMC5 142356Z 20016KT 02/M02 A301 RMK A01 T00171020  RH  077%=      5-min Rain = 0
KMC5 142357Z 20016KT 02/M02 A301 RMK A01 T00171020  RH  077%=      5-min Rain = 0
KMC5 142358Z 20016KT 02/M02 A301 RMK A01 T00161020  RH  077%=      5-min Rain = 0
KMC5 142359Z 20015KT 02/M02 A301 RMK A01 T00161020  RH  077%=      5-min Rain = 0
KMC5 150000Z 20017KT 02/M02 A301 RMK A01 T00161020  RH  077%=      5-min Rain = 0
KMC5 150001Z 20014KT 02/M02 A301 RMK A01 T00161020  RH  077%=      5-min Rain = 0
KMC5 150002Z 20014KT 02/M02 A301 RMK A01 T00161020  RH  077%=      5-min Rain = 0
KMC5 150003Z 20015KT 02/M02 A301 RMK A01 T00151020  RH  078%=      5-min Rain = 0
KMC5 150004Z 20015KT 02/M02 A301 RMK A01 T00151020  RH  078%=      5-min Rain = 0
KMC5 150005Z 20015KT 01/M02 A301 RMK A01 T00141020  RH  078%=      5-min Rain = 0
KMC5 150006Z 20016KT 01/M02 A301 RMK A01 T00131021  RH  078%=      5-min Rain = 0
KMC5 150007Z 20016KT 01/M02 A301 RMK A01 T00121021  RH  079%=      5-min Rain = 0
KMC5 150008Z 20017KT 01/M02 A301 RMK A01 T00121021  RH  079%=      5-min Rain = 0
KMC5 150009Z 19014KT 01/M02 A301 RMK A01 T00111021  RH  079%=      5-min Rain = 0
KMC5 150010Z 20015KT 01/M02 A301 RMK A01 T00101021  RH  080%=      5-min Rain = 0
KMC5 150011Z 19014KT 01/M02 A301 RMK A01 T00101021  RH  080%=      5-min Rain = 0
KMC5 150012Z 19012KT 01/M02 A301 RMK A01 T00091021  RH  080%=      5-min Rain = 0
KMC5 150013Z 20013KT 01/M02 A301 RMK A01 T00081022  RH  080%=      5-min Rain = 0
KMC5 150014Z 20013KT 01/M02 A301 RMK A01 T00081022  RH  081%=      5-min Rain = 0
KMC5 150015Z 20014KT 01/M02 A301 RMK A01 T00081021  RH  081%=      5-min Rain = 0
KMC5 150016Z 20014KT 01/M02 A301 RMK A01 T00081021  RH  081%=      5-min Rain = 0
KMC5 150017Z 20014KT 01/M02 A301 RMK A01 T00071021  RH  081%=      5-min Rain = 0
KMC5 150018Z 20013KT 01/M02 A301 RMK A01 T00081021  RH  081%=      5-min Rain = 0
KMC5 150019Z 19012KT 01/M02 A301 RMK A01 T00081021  RH  081%=      5-min Rain = 0
KMC5 150020Z 20011KT 01/M02 A301 RMK A01 T00071021  RH  082%=      5-min Rain = 0
KMC5 150021Z 20011KT 01/M02 A301 RMK A01 T00061021  RH  082%=      5-min Rain = 0
KMC5 150022Z 20011KT 01/M02 A301 RMK A01 T00061021  RH  082%=      5-min Rain = 0
KMC5 150023Z 21012KT 01/M02 A301 RMK A01 T00061021  RH  082%=      5-min Rain = 0
KMC5 150024Z 20013KT 01/M02 A301 RMK A01 T00061020  RH  083%=      5-min Rain = 0
KMC5 150025Z 20015KT 01/M02 A301 RMK A01 T00061020  RH  083%=      5-min Rain = 0
KMC5 150026Z 20016KT 01/M02 A301 RMK A01 T00061020  RH  082%=      5-min Rain = 0
KMC5 150027Z 19017KT 01/M02 A301 RMK A01 T00061020  RH  082%=      5-min Rain = 0
KMC5 150028Z 19014KT 01/M02 A301 RMK A01 T00061021  RH  082%=      5-min Rain = 0
KMC5 150029Z 19015KT 01/M02 A301 RMK A01 T00051021  RH  083%=      5-min Rain = 0
KMC5 150030Z 19016KT 01/M02 A301 RMK A01 T00051021  RH  083%=      5-min Rain = 0
KMC5 150031Z 19015KT 01/M02 A301 RMK A01 T00051021  RH  083%=      5-min Rain = 0
KMC5 150032Z 19013KT 01/M02 A301 RMK A01 T00051021  RH  083%=      5-min Rain = 0
KMC5 150033Z 19014KT 00/M02 A301 RMK A01 T00041021  RH  083%=      5-min Rain = 0
KMC5 150034Z 19014KT 00/M02 A301 RMK A01 T00041021  RH  083%=      5-min Rain = 0
KMC5 150035Z 19015KT 00/M02 A301 RMK A01 T00041021  RH  083%=      5-min Rain = 0
KMC5 150036Z 19014KT 00/M02 A301 RMK A01 T00041021  RH  083%=      5-min Rain = 0
KMC5 150037Z 19013KT 00/M02 A301 RMK A01 T00031022  RH  083%=      5-min Rain = 0
KMC5 150038Z 20012KT 00/M02 A301 RMK A01 T00021022  RH  084%=      5-min Rain = 0
KMC5 150039Z 19012KT 00/M02 A301 RMK A01 T00011023  RH  084%=      5-min Rain = 0
KMC5 150040Z 20013KT 00/02 A301 RMK A01 T00000-23  RH  085%=      5-min Rain = 0
KMC5 150041Z 20015KT 00/02 A301 RMK A01 T00000-22  RH  085%=      5-min Rain = 0
KMC5 150042Z 20013KT 00/M02 A301 RMK A01 T00011021  RH  085%=      5-min Rain = 0
KMC5 150043Z 20014KT 00/M02 A301 RMK A01 T00011022  RH  085%=      5-min Rain = 0
KMC5 150044Z 20017KT 00/M02 A301 RMK A01 T00011021  RH  085%=      5-min Rain = 0
KMC5 150045Z 20016KT 00/02 A301 RMK A01 T00000-22  RH  085%=      5-min Rain = 0
KMC5 150046Z 20017KT 00/M02 A301 RMK A01 T00011021  RH  085%=      5-min Rain = 0
KMC5 150047Z 20017KT 00/M02 A301 RMK A01 T00011021  RH  085%=      5-min Rain = 0
KMC5 150048Z 20017KT 00/M02 A301 RMK A01 T00011021  RH  085%=      5-min Rain = 0
KMC5 150049Z 20016KT 00/M02 A301 RMK A01 T00011021  RH  085%=      5-min Rain = 0
KMC5 150050Z 20016KT 00/M02 A301 RMK A01 T00011021  RH  085%=      5-min Rain = 0
KMC5 150051Z 20014KT 00/02 A301 RMK A01 T00000-22  RH  085%=      5-min Rain = 0
KMC5 150052Z 20015KT 00/02 A301 RMK A01 T00-00-22  RH  085%=      5-min Rain = 0
KMC5 150053Z 19017KT 00/02 A301 RMK A01 T00-00-21  RH  086%=      5-min Rain = 0
KMC5 150054Z 19016KT 00/02 A301 RMK A01 T00-00-22  RH  086%=      5-min Rain = 0
KMC5 150055Z 20013KT M00/M02 A301 RMK A01 T10011022  RH  086%=      5-min Rain = 0
KMC5 150056Z 19013KT M00/M02 A301 RMK A01 T10011022  RH  086%=      5-min Rain = 0
KMC5 150057Z 19013KT M00/M02 A301 RMK A01 T10011022  RH  086%=      5-min Rain = 0
KMC5 150058Z 19013KT M00/M02 A301 RMK A01 T10021022  RH  086%=      5-min Rain = 0
KMC5 150059Z 19014KT M00/M02 A301 RMK A01 T10021022  RH  086%=      5-min Rain = 0
KMC5 150100Z 20015KT M00/M02 A301 RMK A01 T10021022  RH  086%=      5-min Rain = 0
KMC5 150101Z 19013KT M00/M02 A301 RMK A01 T10011021  RH  086%=      5-min Rain = 0
KMC5 150102Z 20011KT M00/M02 A301 RMK A01 T10011021  RH  086%=      5-min Rain = 0
KMC5 150103Z 20012KT M00/M02 A301 RMK A01 T10021022  RH  086%=      5-min Rain = 0
KMC5 150104Z 20012G17KT M00/M02 A301 RMK A01 T10021022  RH  087%=      5-min Rain = 0
KMC5 150105Z 20012KT M00/M02 A301 RMK A01 T10021021  RH  087%=      5-min Rain = 0
KMC5 150106Z 20012KT M00/M02 A301 RMK A01 T10021022  RH  087%=      5-min Rain = 0
KMC5 150107Z 20015KT M00/M02 A301 RMK A01 T10031022  RH  087%=      5-min Rain = 0
KMC5 150108Z 20017KT M00/M02 A301 RMK A01 T10021021  RH  087%=      5-min Rain = 0
KMC5 150109Z 20015KT M00/M02 A301 RMK A01 T10011020  RH  087%=      5-min Rain = 0
KMC5 150110Z 20016KT M00/M02 A301 RMK A01 T10011021  RH  087%=      5-min Rain = 0
KMC5 150111Z 19015KT M00/M02 A301 RMK A01 T10011021  RH  087%=      5-min Rain = 0
KMC5 150112Z 19017KT M00/M02 A301 RMK A01 T10011020  RH  087%=      5-min Rain = 0
KMC5 150113Z 19016KT M00/M02 A301 RMK A01 T10011020  RH  087%=      5-min Rain = 0
KMC5 150114Z 19015KT M00/M02 A301 RMK A01 T10011020  RH  087%=      5-min Rain = 0
KMC5 150115Z 20015G21KT M00/M02 A301 RMK A01 T10021021  RH  087%=      5-min Rain = 0
KMC5 150116Z 19016KT M00/M02 A301 RMK A01 T10021021  RH  087%=      5-min Rain = 0
KMC5 150117Z 19016G21KT M00/M02 A301 RMK A01 T10021021  RH  087%=      5-min Rain = 0
KMC5 150118Z 19017KT M00/M02 A301 RMK A01 T10021020  RH  087%=      5-min Rain = 0
KMC5 150119Z 19016KT M00/M02 A301 RMK A01 T10021020  RH  087%=      5-min Rain = 0
KMC5 150120Z 19015KT M00/M02 A301 RMK A01 T10021021  RH  087%=      5-min Rain = 0
KMC5 150121Z 19016KT M00/M02 A301 RMK A01 T10021020  RH  088%=      5-min Rain = 0
KMC5 150122Z 19016KT M00/M02 A301 RMK A01 T10021021  RH  088%=      5-min Rain = 0
KMC5 150123Z 19013KT M00/M02 A301 RMK A01 T10021021  RH  087%=      5-min Rain = 0
KMC5 150124Z 19013KT M00/M02 A301 RMK A01 T10031021  RH  088%=      5-min Rain = 0
KMC5 150125Z 19012KT M00/M02 A301 RMK A01 T10031021  RH  088%=      5-min Rain = 0
KMC5 150126Z 19015KT M00/M02 A301 RMK A01 T10041021  RH  088%=      5-min Rain = 0
KMC5 150127Z 19015KT M00/M02 A301 RMK A01 T10041021  RH  088%=      5-min Rain = 0
KMC5 150128Z 19016KT M00/M02 A301 RMK A01 T10031020  RH  088%=      5-min Rain = 0
KMC5 150129Z 19012KT M00/M02 A301 RMK A01 T10031020  RH  088%=      5-min Rain = 0
KMC5 150130Z 19013KT M00/M02 A301 RMK A01 T10031021  RH  088%=      5-min Rain = 0
KMC5 150131Z 19013KT M00/M02 A301 RMK A01 T10041021  RH  088%=      5-min Rain = 0
KMC5 150132Z 20014KT M00/M02 A301 RMK A01 T10041021  RH  088%=      5-min Rain = 0
KMC5 150133Z 20013KT M00/M02 A301 RMK A01 T10031020  RH  088%=      5-min Rain = 0
KMC5 150134Z 19015KT M00/M02 A301 RMK A01 T10031021  RH  088%=      5-min Rain = 0
KMC5 150135Z 19012KT M00/M02 A301 RMK A01 T10031020  RH  088%=      5-min Rain = 0
KMC5 150136Z 19011KT M00/M02 A301 RMK A01 T10031021  RH  088%=      5-min Rain = 0
KMC5 150137Z 19014G19KT M00/M02 A301 RMK A01 T10041021  RH  088%=      5-min Rain = 0
KMC5 150138Z 19014KT M00/M02 A301 RMK A01 T10041020  RH  089%=      5-min Rain = 0
KMC5 150139Z 19015KT M00/M02 A301 RMK A01 T10031020  RH  089%=      5-min Rain = 0
KMC5 150140Z 19016KT M00/M02 A301 RMK A01 T10021019  RH  088%=      5-min Rain = 0
KMC5 150141Z 19015KT M00/M02 A301 RMK A01 T10031020  RH  088%=      5-min Rain = 0
KMC5 150142Z 20016KT M00/M02 A301 RMK A01 T10021020  RH  088%=      5-min Rain = 0
KMC5 150143Z 19015KT M00/M02 A301 RMK A01 T10021019  RH  088%=      5-min Rain = 0
KMC5 150144Z 20016G21KT M00/M02 A301 RMK A01 T10011019  RH  088%=      5-min Rain = 0
KMC5 150145Z 19019G24KT M00/M02 A3009 RMK A01 T10011020  RH  087%=      5-min Rain = 0
KMC5 150146Z 20018KT 00/02 A3009 RMK A01 T00-00-19  RH  087%=      5-min Rain = 0
KMC5 150147Z 20018KT 00/02 A3009 RMK A01 T00-00-19  RH  087%=      5-min Rain = 0
KMC5 150148Z 20020KT 00/02 A3009 RMK A01 T00-00-19  RH  087%=      5-min Rain = 0
KMC5 150149Z 20019G24KT 00/02 A3009 RMK A01 T00-00-19  RH  087%=      5-min Rain = 0
KMC5 150150Z 20023KT 00/02 A3009 RMK A01 T00-00-19  RH  087%=      5-min Rain = 0
KMC5 150151Z 20024KT 00/M02 A3009 RMK A01 T00011019  RH  087%=      5-min Rain = 0
KMC5 150152Z 20020KT 00/M02 A3009 RMK A01 T00011018  RH  087%=      5-min Rain = 0
KMC5 150153Z 20020G26KT 00/M02 A3009 RMK A01 T00021018  RH  086%=      5-min Rain = 0
KMC5 150154Z 20022KT 00/M02 A3009 RMK A01 T00021018  RH  087%=      5-min Rain = 0
KMC5 150155Z 20020KT 00/M02 A3009 RMK A01 T00011018  RH  087%=      5-min Rain = 0
KMC5 150156Z 20023KT 00/M02 A3009 RMK A01 T00021018  RH  087%=      5-min Rain = 0
KMC5 150157Z 20020G25KT 00/M02 A3009 RMK A01 T00011019  RH  087%=      5-min Rain = 0
KMC5 150158Z 20020KT 00/M02 A3009 RMK A01 T00021018  RH  086%=      5-min Rain = 0
KMC5 150159Z 19020KT 00/M02 A3009 RMK A01 T00011019  RH  087%=      5-min Rain = 0
KMC5 150200Z 20020KT 00/M02 A3009 RMK A01 T00011019  RH  087%=      5-min Rain = 0
KMC5 150201Z 20016KT 00/02 A3009 RMK A01 T00000-19  RH  087%=      5-min Rain = 0
KMC5 150202Z 20020KT M00/M02 A3009 RMK A01 T10011019  RH  087%=      5-min Rain = 0
KMC5 150203Z 20019KT M00/M02 A3009 RMK A01 T10011019  RH  087%=      5-min Rain = 0
KMC5 150204Z 20019KT M00/M02 A3009 RMK A01 T10011019  RH  088%=      5-min Rain = 0
KMC5 150205Z 20018KT 00/02 A3009 RMK A01 T00-00-19  RH  087%=      5-min Rain = 0
KMC5 150206Z 20017KT 00/02 A301 RMK A01 T00-00-19  RH  087%=      5-min Rain = 0
KMC5 150207Z 20018KT M00/M02 A301 RMK A01 T10011019  RH  088%=      5-min Rain = 0
KMC5 150208Z 19018KT M00/M02 A301 RMK A01 T10011019  RH  088%=      5-min Rain = 0
KMC5 150209Z 19018KT M00/M02 A301 RMK A01 T10011019  RH  088%=      5-min Rain = 0
KMC5 150210Z 19016KT M00/M02 A301 RMK A01 T10011019  RH  088%=      5-min Rain = 0
KMC5 150211Z 19016KT M00/M02 A301 RMK A01 T10011019  RH  088%=      5-min Rain = 0
KMC5 150212Z 19014KT M00/M02 A301 RMK A01 T10011019  RH  088%=      5-min Rain = 0
KMC5 150213Z 19016KT M00/M02 A301 RMK A01 T10021019  RH  088%=      5-min Rain = 0
KMC5 150214Z 20015KT M00/M02 A301 RMK A01 T10021019  RH  088%=      5-min Rain = 0
KMC5 150215Z 19014KT M00/M02 A301 RMK A01 T10021019  RH  088%=      5-min Rain = 0
KMC5 150216Z 19015KT M00/M02 A301 RMK A01 T10031019  RH  089%=      5-min Rain = 0
KMC5 150217Z 19014KT M00/M02 A301 RMK A01 T10021018  RH  089%=      5-min Rain = 0
KMC5 150218Z 19014G19KT M00/M02 A301 RMK A01 T10031019  RH  089%=      5-min Rain = 0
KMC5 150219Z 19015KT M00/M02 A301 RMK A01 T10031019  RH  089%=      5-min Rain = 0
KMC5 150220Z 19016KT M00/M02 A301 RMK A01 T10031019  RH  089%=      5-min Rain = 0
KMC5 150221Z 19015G20KT M00/M02 A301 RMK A01 T10031018  RH  089%=      5-min Rain = 0
KMC5 150222Z 19015KT M00/M02 A301 RMK A01 T10031018  RH  089%=      5-min Rain = 0
KMC5 150223Z 19014KT M00/M02 A301 RMK A01 T10031019  RH  089%=      5-min Rain = 0
KMC5 150224Z 19014KT M00/M02 A301 RMK A01 T10031019  RH  089%=      5-min Rain = 0
KMC5 150225Z 20014KT M00/M02 A301 RMK A01 T10041019  RH  089%=      5-min Rain = 0
KMC5 150226Z 20016KT M00/M02 A301 RMK A01 T10031018  RH  090%=      5-min Rain = 0
KMC5 150227Z 20018KT M00/M02 A301 RMK A01 T10031018  RH  090%=      5-min Rain = 0
KMC5 150228Z 20017KT M00/M02 A301 RMK A01 T10031018  RH  090%=      5-min Rain = 0
KMC5 150229Z 20015KT M00/M02 A301 RMK A01 T10021018  RH  089%=      5-min Rain = 0
KMC5 150230Z 19016KT M00/M02 A301 RMK A01 T10021018  RH  089%=      5-min Rain = 0
KMC5 150231Z 20015KT M00/M02 A301 RMK A01 T10021018  RH  089%=      5-min Rain = 0
KMC5 150232Z 20016KT M00/M02 A301 RMK A01 T10021017  RH  089%=      5-min Rain = 0
KMC5 150233Z 20014KT M00/M02 A301 RMK A01 T10021017  RH  089%=      5-min Rain = 0
KMC5 150234Z 20014KT M00/M02 A301 RMK A01 T10021017  RH  089%=      5-min Rain = 0
KMC5 150235Z 20015KT M00/M02 A301 RMK A01 T10031018  RH  090%=      5-min Rain = 0
KMC5 150236Z 20014KT M00/M02 A301 RMK A01 T10031018  RH  090%=      5-min Rain = 0
KMC5 150237Z 20017KT M00/M02 A301 RMK A01 T10031018  RH  090%=      5-min Rain = 0
KMC5 150238Z 20016KT M00/M02 A301 RMK A01 T10021017  RH  090%=      5-min Rain = 0
KMC5 150239Z 20014KT M00/M02 A301 RMK A01 T10021017  RH  090%=      5-min Rain = 0
KMC5 150240Z 20015KT M00/M02 A301 RMK A01 T10021017  RH  090%=      5-min Rain = 0
KMC5 150241Z 20014KT M00/M02 A301 RMK A01 T10021017  RH  090%=      5-min Rain = 0
KMC5 150242Z 20015KT M00/M02 A301 RMK A01 T10031017  RH  090%=      5-min Rain = 0
KMC5 150243Z 20015KT M00/M02 A301 RMK A01 T10031017  RH  090%=      5-min Rain = 0
KMC5 150244Z 20014KT M00/M02 A301 RMK A01 T10031017  RH  090%=      5-min Rain = 0
KMC5 150245Z 20015KT M00/M02 A301 RMK A01 T10031017  RH  090%=      5-min Rain = 0
KMC5 150246Z 20015KT M00/M02 A301 RMK A01 T10031017  RH  090%=      5-min Rain = 0
KMC5 150247Z 20013KT M00/M02 A301 RMK A01 T10031017  RH  090%=      5-min Rain = 0
KMC5 150248Z 20016KT M00/M02 A301 RMK A01 T10031017  RH  090%=      5-min Rain = 0
KMC5 150249Z 19014KT M00/M02 A301 RMK A01 T10031017  RH  090%=      5-min Rain = 0
KMC5 150250Z 19015KT M00/M02 A301 RMK A01 T10021017  RH  090%=      5-min Rain = 0
KMC5 150251Z 20016G22KT M00/M02 A301 RMK A01 T10021016  RH  090%=      5-min Rain = 0
KMC5 150252Z 20017KT M00/M02 A301 RMK A01 T10021016  RH  091%=      5-min Rain = 0
KMC5 150253Z 19018KT M00/M02 A301 RMK A01 T10011015  RH  090%=      5-min Rain = 0
KMC5 150254Z 19017KT M00/M02 A301 RMK A01 T10011015  RH  090%=      5-min Rain = 0
KMC5 150255Z 19016KT M00/M02 A301 RMK A01 T10011016  RH  090%=      5-min Rain = 0
KMC5 150256Z 20016KT M00/M02 A301 RMK A01 T10011015  RH  090%=      5-min Rain = 0
KMC5 150257Z 19018KT M00/M02 A301 RMK A01 T10011016  RH  090%=      5-min Rain = 0
KMC5 150258Z 20016KT M00/M02 A301 RMK A01 T10011016  RH  090%=      5-min Rain = 0
KMC5 150259Z 19016KT M00/M02 A301 RMK A01 T10011016  RH  090%=      5-min Rain = 0
KMC5 150300Z 20018KT M00/M02 A301 RMK A01 T10021016  RH  090%=      5-min Rain = 0
KMC5 150301Z 20015KT M00/M02 A301 RMK A01 T10021016  RH  090%=      5-min Rain = 0
KMC5 150302Z 20015KT M00/M02 A301 RMK A01 T10021017  RH  090%=      5-min Rain = 0
KMC5 150303Z 20014KT M00/M02 A301 RMK A01 T10021016  RH  090%=      5-min Rain = 0
KMC5 150304Z 20016KT M00/M02 A301 RMK A01 T10031017  RH  090%=      5-min Rain = 0
KMC5 150305Z 20016KT M00/M02 A301 RMK A01 T10031017  RH  090%=      5-min Rain = 0
KMC5 150306Z 20015KT M00/M02 A301 RMK A01 T10031017  RH  091%=      5-min Rain = 0
KMC5 150307Z 20015KT M00/M02 A301 RMK A01 T10031017  RH  091%=      5-min Rain = 0
KMC5 150308Z 20014KT M00/M02 A301 RMK A01 T10031017  RH  091%=      5-min Rain = 0
KMC5 150309Z 20014KT M00/M02 A301 RMK A01 T10031017  RH  091%=      5-min Rain = 0
KMC5 150310Z 21013KT M00/M02 A301 RMK A01 T10041017  RH  091%=      5-min Rain = 0
KMC5 150311Z 20015KT M00/M02 A301 RMK A01 T10041017  RH  091%=      5-min Rain = 0
KMC5 150312Z 20014KT M00/M02 A301 RMK A01 T10041017  RH  091%=      5-min Rain = 0
KMC5 150313Z 20014KT M01/M02 A301 RMK A01 T10051017  RH  091%=      5-min Rain = 0
KMC5 150314Z 20015KT M01/M02 A301 RMK A01 T10051017  RH  091%=      5-min Rain = 0
KMC5 150315Z 21014KT M00/M02 A301 RMK A01 T10041017  RH  091%=      5-min Rain = 0
KMC5 150316Z 21012KT M01/M02 A301 RMK A01 T10051017  RH  091%=      5-min Rain = 0
KMC5 150317Z 21012KT M01/M02 A301 RMK A01 T10051017  RH  092%=      5-min Rain = 0
KMC5 150318Z 21014KT M01/M02 A301 RMK A01 T10051017  RH  092%=      5-min Rain = 0
KMC5 150319Z 21012KT M01/M02 A301 RMK A01 T10051016  RH  092%=      5-min Rain = 0
KMC5 150320Z 21013KT M01/M02 A301 RMK A01 T10051017  RH  092%=      5-min Rain = 0
KMC5 150321Z 21012KT M01/M02 A301 RMK A01 T10051017  RH  092%=      5-min Rain = 0
KMC5 150322Z 21016KT M01/M02 A301 RMK A01 T10051016  RH  092%=      5-min Rain = 0
KMC5 150323Z 21015KT M00/M02 A301 RMK A01 T10041015  RH  092%=      5-min Rain = 0
KMC5 150324Z 21016KT M00/M02 A301 RMK A01 T10041015  RH  092%=      5-min Rain = 0
KMC5 150325Z 21016KT M00/M02 A301 RMK A01 T10041015  RH  092%=      5-min Rain = 0
KMC5 150326Z 21015KT M00/M02 A301 RMK A01 T10031015  RH  092%=      5-min Rain = 0
KMC5 150327Z 21014KT M00/M02 A301 RMK A01 T10041016  RH  092%=      5-min Rain = 0
KMC5 150328Z 21013KT M00/M02 A301 RMK A01 T10031015  RH  092%=      5-min Rain = 0
KMC5 150329Z 21014KT M00/M02 A301 RMK A01 T10041016  RH  092%=      5-min Rain = 0
KMC5 150330Z 21014KT M00/M02 A301 RMK A01 T10041015  RH  092%=      5-min Rain = 0
KMC5 150331Z 21014KT M00/M02 A301 RMK A01 T10041015  RH  092%=      5-min Rain = 0
KMC5 150332Z 21015KT M00/M02 A301 RMK A01 T10041015  RH  092%=      5-min Rain = 0
KMC5 150333Z 21016KT M00/M02 A301 RMK A01 T10041015  RH  092%=      5-min Rain = 0
KMC5 150334Z 21016KT M00/M01 A301 RMK A01 T10031014  RH  092%=      5-min Rain = 0
KMC5 150335Z 20016KT M00/M01 A301 RMK A01 T10031014  RH  092%=      5-min Rain = 0
KMC5 150336Z 21017KT M00/M01 A301 RMK A01 T10021014  RH  092%=      5-min Rain = 0
KMC5 150337Z 21016KT M00/M01 A301 RMK A01 T10021013  RH  092%=      5-min Rain = 0
KMC5 150338Z 21017KT M00/M01 A301 RMK A01 T10021014  RH  092%=      5-min Rain = 0
KMC5 150339Z 21018KT M00/M01 A301 RMK A01 T10021014  RH  092%=      5-min Rain = 0
KMC5 150340Z 21017KT M00/M01 A301 RMK A01 T10021013  RH  092%=      5-min Rain = 0
KMC5 150341Z 21017KT M00/M01 A301 RMK A01 T10011013  RH  092%=      5-min Rain = 0
KMC5 150342Z 21016KT M00/M01 A301 RMK A01 T10011013  RH  092%=      5-min Rain = 0
KMC5 150343Z 21016KT 00/01 A301 RMK A01 T00-00-12  RH  092%=      5-min Rain = 0
KMC5 150344Z 21016KT 00/01 A301 RMK A01 T00-00-12  RH  092%=      5-min Rain = 0
KMC5 150345Z 21018KT 00/01 A301 RMK A01 T00-00-13  RH  092%=      5-min Rain = 0
KMC5 150346Z 21015KT 00/01 A301 RMK A01 T00000-12  RH  092%=      5-min Rain = 0
KMC5 150347Z 21013KT 00/M01 A301 RMK A01 T00011012  RH  091%=      5-min Rain = 0
KMC5 150348Z 21014KT 00/01 A301 RMK A01 T00-00-13  RH  091%=      5-min Rain = 0
KMC5 150349Z 21016KT 00/01 A301 RMK A01 T00-00-12  RH  092%=      5-min Rain = 0
KMC5 150350Z 21015KT 00/01 A301 RMK A01 T00-00-12  RH  092%=      5-min Rain = 0
KMC5 150351Z 21015KT 00/01 A301 RMK A01 T00000-12  RH  092%=      5-min Rain = 0
KMC5 150352Z 21016KT 00/01 A301 RMK A01 T00000-12  RH  092%=      5-min Rain = 0
KMC5 150353Z 21016KT 00/01 A301 RMK A01 T00000-11  RH  092%=      5-min Rain = 0
KMC5 150354Z 22015KT 00/M01 A301 RMK A01 T00011012  RH  092%=      5-min Rain = 0
KMC5 150355Z 21013KT 00/01 A301 RMK A01 T00000-12  RH  091%=      5-min Rain = 0
KMC5 150356Z 21015KT 00/01 A301 RMK A01 T00000-12  RH  092%=      5-min Rain = 0
KMC5 150357Z 21014KT 00/01 A301 RMK A01 T00000-11  RH  092%=      5-min Rain = 0
KMC5 150358Z 21014G19KT 00/01 A301 RMK A01 T00000-11  RH  092%=      5-min Rain = 0
KMC5 150359Z 21016KT 00/01 A301 RMK A01 T00-00-11  RH  092%=      5-min Rain = 0
KMC5 150400Z 22015KT 00/M01 A301 RMK A01 T00011011  RH  092%=      5-min Rain = 0
KMC5 150401Z 21015KT 00/M01 A301 RMK A01 T00011010  RH  092%=      5-min Rain = 0
KMC5 150402Z 22014KT 00/M01 A301 RMK A01 T00021010  RH  092%=      5-min Rain = 0
KMC5 150403Z 21013KT 00/M01 A301 RMK A01 T00021011  RH  092%=      5-min Rain = 0
KMC5 150404Z 21014KT 00/M01 A301 RMK A01 T00021011  RH  092%=      5-min Rain = 0
KMC5 150405Z 21012KT 00/M01 A301 RMK A01 T00011011  RH  092%=      5-min Rain = 0
KMC5 150406Z 21014KT 00/M01 A301 RMK A01 T00011011  RH  092%=      5-min Rain = 0
KMC5 150407Z 21014KT 00/M01 A301 RMK A01 T00011011  RH  092%=      5-min Rain = 0
KMC5 150408Z 21015KT 00/M01 A301 RMK A01 T00011011  RH  092%=      5-min Rain = 0
KMC5 150409Z 22013KT 00/M01 A301 RMK A01 T00011010  RH  092%=      5-min Rain = 0
KMC5 150410Z 22015KT 00/M01 A301 RMK A01 T00011011  RH  092%=      5-min Rain = 0
KMC5 150411Z 22013KT 00/M01 A301 RMK A01 T00011010  RH  092%=      5-min Rain = 0
KMC5 150412Z 22013KT 00/M01 A301 RMK A01 T00011011  RH  092%=      5-min Rain = 0
KMC5 150413Z 22012KT 00/M01 A301 RMK A01 T00011011  RH  092%=      5-min Rain = 0
KMC5 150414Z 22013KT 00/01 A301 RMK A01 T00000-12  RH  092%=      5-min Rain = 0
KMC5 150415Z 22014KT 00/01 A301 RMK A01 T00000-11  RH  092%=      5-min Rain = 0
KMC5 150416Z 22012KT 00/M01 A301 RMK A01 T00011011  RH  092%=      5-min Rain = 0
KMC5 150417Z 22011KT 00/M01 A301 RMK A01 T00011011  RH  092%=      5-min Rain = 0
KMC5 150418Z 22012KT 00/01 A301 RMK A01 T00000-11  RH  092%=      5-min Rain = 0
KMC5 150419Z 22012KT 00/01 A301 RMK A01 T00-00-11  RH  092%=      5-min Rain = 0
KMC5 150420Z 22011KT 00/01 A301 RMK A01 T00-00-11  RH  092%=      5-min Rain = 0
KMC5 150421Z 22012KT 00/01 A301 RMK A01 T00000-11  RH  092%=      5-min Rain = 0
KMC5 150422Z 22012KT 00/01 A301 RMK A01 T00000-11  RH  092%=      5-min Rain = 0
KMC5 150423Z 21013KT 00/M01 A301 RMK A01 T00011011  RH  092%=      5-min Rain = 0
KMC5 150424Z 22011KT 00/M01 A301 RMK A01 T00011010  RH  092%=      5-min Rain = 0
KMC5 150425Z 22012KT 00/M01 A301 RMK A01 T00011011  RH  092%=      5-min Rain = 0
KMC5 150426Z 21013KT 00/M01 A301 RMK A01 T00011011  RH  092%=      5-min Rain = 0
KMC5 150427Z 21013KT 00/M01 A301 RMK A01 T00011009  RH  093%=      5-min Rain = 0
KMC5 150428Z 21011KT 00/M01 A301 RMK A01 T00021009  RH  092%=      5-min Rain = 0
KMC5 150429Z 21014KT 00/M01 A301 RMK A01 T00021010  RH  092%=      5-min Rain = 0
KMC5 150430Z 21013G18KT 00/M01 A301 RMK A01 T00021008  RH  093%=      5-min Rain = 0
KMC5 150431Z 21016KT 00/M01 A301 RMK A01 T00031007  RH  093%=      5-min Rain = 0
KMC5 150432Z 21014KT 00/M01 A301 RMK A01 T00041006  RH  093%=      5-min Rain = 0
KMC5 150433Z 21014KT 01/M01 A301 RMK A01 T00051006  RH  092%=      5-min Rain = 0
KMC5 150434Z 21015KT 01/M01 A3009 RMK A01 T00051006  RH  092%=      5-min Rain = 0
KMC5 150435Z 21015KT 01/M01 A3009 RMK A01 T00061005  RH  092%=      5-min Rain = 0
KMC5 150436Z 21013KT 01/M01 A3009 RMK A01 T00061005  RH  092%=      5-min Rain = 0
KMC5 150437Z 21014KT 01/M01 A3009 RMK A01 T00061005  RH  092%=      5-min Rain = 0
KMC5 150438Z 21014KT 01/M01 A3009 RMK A01 T00061005  RH  092%=      5-min Rain = 0
KMC5 150439Z 21014KT 01/M01 A3009 RMK A01 T00061005  RH  092%=      5-min Rain = 0
KMC5 150440Z 22013KT 01/M00 A3009 RMK A01 T00061004  RH  093%=      5-min Rain = 0
KMC5 150441Z 21015KT 01/M01 A3009 RMK A01 T00061005  RH  093%=      5-min Rain = 0
KMC5 150442Z 21016KT 01/M00 A3009 RMK A01 T00061004  RH  093%=      5-min Rain = 0
KMC5 150443Z 22015KT 01/M00 A3009 RMK A01 T00071004  RH  093%=      5-min Rain = 0
KMC5 150444Z 22013KT 01/M00 A3009 RMK A01 T00071004  RH  092%=      5-min Rain = 0
KMC5 150445Z 22014KT 01/M00 A3009 RMK A01 T00071004  RH  092%=      5-min Rain = 0
KMC5 150446Z 22015KT 01/M00 A3009 RMK A01 T00071004  RH  092%=      5-min Rain = 0
KMC5 150447Z 22014KT 01/M00 A3009 RMK A01 T00071004  RH  093%=      5-min Rain = 0
KMC5 150448Z 22013KT 01/M00 A3009 RMK A01 T00071004  RH  092%=      5-min Rain = 0
KMC5 150449Z 22014KT 01/M01 A3009 RMK A01 T00061005  RH  092%=      5-min Rain = 0
KMC5 150450Z 22012KT 01/M01 A3009 RMK A01 T00061005  RH  093%=      5-min Rain = 0
KMC5 150451Z 22013KT 01/M01 A3009 RMK A01 T00061005  RH  093%=      5-min Rain = 0
KMC5 150452Z 22014KT 01/M01 A3009 RMK A01 T00061005  RH  093%=      5-min Rain = 0
KMC5 150453Z 22014KT 01/M00 A3009 RMK A01 T00061004  RH  093%=      5-min Rain = 0
KMC5 150454Z 22013KT 01/M00 A3009 RMK A01 T00061004  RH  093%=      5-min Rain = 0
KMC5 150455Z 22014KT 01/M00 A3009 RMK A01 T00061004  RH  093%=      5-min Rain = 0
KMC5 150456Z 22015G20KT 01/M00 A3009 RMK A01 T00061004  RH  093%=      5-min Rain = 0
KMC5 150457Z 22015KT 01/M00 A3009 RMK A01 T00071003  RH  093%=      5-min Rain = 0
KMC5 150458Z 22016KT 01/M00 A3009 RMK A01 T00081002  RH  093%=      5-min Rain = 0
KMC5 150459Z 22016KT 01/M00 A3009 RMK A01 T00081002  RH  093%=      5-min Rain = 0
KMC5 150500Z 22014KT 01/M00 A3009 RMK A01 T00091002  RH  093%=      5-min Rain = 0
KMC5 150501Z 22013KT 01/M00 A3009 RMK A01 T00081003  RH  092%=      5-min Rain = 0
KMC5 150502Z 22013KT 01/M00 A3009 RMK A01 T00071004  RH  092%=      5-min Rain = 0
KMC5 150503Z 22013KT 01/M00 A3009 RMK A01 T00071003  RH  093%=      5-min Rain = 0
KMC5 150504Z 22012KT 01/M00 A3009 RMK A01 T00071004  RH  093%=      5-min Rain = 0
KMC5 150505Z 22012KT 01/M00 A3009 RMK A01 T00061004  RH  093%=      5-min Rain = 0
KMC5 150506Z 22013KT 01/M00 A3008 RMK A01 T00061004  RH  093%=      5-min Rain = 0
KMC5 150507Z 22016KT 01/M00 A3008 RMK A01 T00061003  RH  093%=      5-min Rain = 0
KMC5 150508Z 21013KT 01/M00 A3008 RMK A01 T00071003  RH  093%=      5-min Rain = 0
KMC5 150509Z 21014KT 01/M00 A3008 RMK A01 T00071003  RH  093%=      5-min Rain = 0
KMC5 150510Z 21013KT 01/M00 A3008 RMK A01 T00071003  RH  093%=      5-min Rain = 0
KMC5 150511Z 22014KT 01/M00 A3008 RMK A01 T00071003  RH  093%=      5-min Rain = 0
KMC5 150512Z 22015KT 01/M00 A3008 RMK A01 T00071003  RH  093%=      5-min Rain = 0
KMC5 150513Z 21016G22KT 01/M00 A3008 RMK A01 T00071003  RH  093%=      5-min Rain = 0
KMC5 150514Z 21018KT 01/M00 A3007 RMK A01 T00091001  RH  093%=      5-min Rain = 0
KMC5 150515Z 21016KT 01/00 A3008 RMK A01 T00100000  RH  093%=      5-min Rain = 0
KMC5 150516Z 21016KT 01/M00 A3007 RMK A01 T00101001  RH  092%=      5-min Rain = 0
KMC5 150517Z 22017KT 01/M00 A3008 RMK A01 T00101002  RH  092%=      5-min Rain = 0
KMC5 150518Z 22015KT 01/M00 A3007 RMK A01 T00101002  RH  092%=      5-min Rain = 0
KMC5 150519Z 22017KT 01/M00 A3007 RMK A01 T00091002  RH  092%=      5-min Rain = 0
KMC5 150520Z 22018KT 01/M00 A3007 RMK A01 T00091002  RH  093%=      5-min Rain = 0
KMC5 150521Z 21019KT 01/M00 A3007 RMK A01 T00091001  RH  093%=      5-min Rain = 0
KMC5 150522Z 21018KT 01/M00 A3007 RMK A01 T00101001  RH  093%=      5-min Rain = 0
KMC5 150523Z 22017KT 01/M00 A3007 RMK A01 T00101001  RH  092%=      5-min Rain = 0
KMC5 150524Z 22019KT 01/M00 A3007 RMK A01 T00101001  RH  092%=      5-min Rain = 0
KMC5 150525Z 21019KT 01/00 A3007 RMK A01 T001100-0  RH  093%=      5-min Rain = 0
KMC5 150526Z 21018KT 01/00 A3007 RMK A01 T001100-0  RH  092%=      5-min Rain = 0
KMC5 150527Z 21018G23KT 01/00 A3007 RMK A01 T001100-0  RH  092%=      5-min Rain = 0
KMC5 150528Z 22016KT 01/M00 A3007 RMK A01 T00101001  RH  092%=      5-min Rain = 0
KMC5 150529Z 22017KT 01/M00 A3006 RMK A01 T00101001  RH  092%=      5-min Rain = 0
KMC5 150530Z 21017KT 01/M00 A3006 RMK A01 T00101001  RH  092%=      5-min Rain = 0
KMC5 150531Z 22017KT 01/M00 A3007 RMK A01 T00101001  RH  093%=      5-min Rain = 0
KMC5 150532Z 22017KT 01/M00 A3007 RMK A01 T00101001  RH  093%=      5-min Rain = 0
KMC5 150533Z 22018KT 01/M00 A3006 RMK A01 T00101001  RH  092%=      5-min Rain = 0
KMC5 150534Z 22017KT 01/M00 A3006 RMK A01 T00101001  RH  092%=      5-min Rain = 0
KMC5 150535Z 22018KT 01/M00 A3006 RMK A01 T00101001  RH  092%=      5-min Rain = 0
KMC5 150536Z 22017KT 01/M00 A3006 RMK A01 T00101001  RH  092%=      5-min Rain = 0
KMC5 150537Z 22018KT 01/M00 A3006 RMK A01 T00111001  RH  092%=      5-min Rain = 0
KMC5 150538Z 22018KT 01/00 A3006 RMK A01 T001100-0  RH  092%=      5-min Rain = 0
KMC5 150539Z 22018KT 01/00 A3006 RMK A01 T00110000  RH  092%=      5-min Rain = 0
KMC5 150540Z 22018KT 01/00 A3006 RMK A01 T00120000  RH  092%=      5-min Rain = 0
KMC5 150541Z 21019KT 01/00 A3006 RMK A01 T00120001  RH  092%=      5-min Rain = 0
KMC5 150542Z 21019KT 01/00 A3006 RMK A01 T00120001  RH  092%=      5-min Rain = 0
KMC5 150543Z 22017KT 01/00 A3006 RMK A01 T00130001  RH  092%=      5-min Rain = 0
KMC5 150544Z 22017KT 01/00 A3006 RMK A01 T00130001  RH  092%=      5-min Rain = 0
KMC5 150545Z 21019KT 01/00 A3006 RMK A01 T00120001  RH  092%=      5-min Rain = 0
KMC5 150546Z 22019KT 01/00 A3006 RMK A01 T00120001  RH  092%=      5-min Rain = 0
KMC5 150547Z 22018KT 01/00 A3006 RMK A01 T00130001  RH  092%=      5-min Rain = 0
KMC5 150548Z 22017KT 01/00 A3006 RMK A01 T001200-0  RH  092%=      5-min Rain = 0
KMC5 150549Z 22018KT 01/00 A3006 RMK A01 T00120000  RH  092%=      5-min Rain = 0
KMC5 150550Z 22020KT 01/00 A3006 RMK A01 T00120001  RH  092%=      5-min Rain = 0
KMC5 150551Z 22017KT 01/00 A3006 RMK A01 T00120001  RH  092%=      5-min Rain = 0
KMC5 150552Z 22018KT 01/00 A3006 RMK A01 T00120000  RH  092%=      5-min Rain = 0
KMC5 150553Z 21017KT 01/00 A3006 RMK A01 T00120000  RH  092%=      5-min Rain = 0
KMC5 150554Z 22018KT 01/00 A3006 RMK A01 T001200-0  RH  092%=      5-min Rain = 0
KMC5 150555Z 22019KT 01/00 A3006 RMK A01 T00120000  RH  092%=      5-min Rain = 0
KMC5 150556Z 22018KT 01/00 A3006 RMK A01 T00120000  RH  092%=      5-min Rain = 0
KMC5 150557Z 21017KT 01/00 A3006 RMK A01 T001200-0  RH  092%=      5-min Rain = 0
KMC5 150558Z 21017KT 01/00 A3006 RMK A01 T001200-0  RH  092%=      5-min Rain = 0
KMC5 150559Z 21018KT 01/00 A3006 RMK A01 T001100-0  RH  092%=      5-min Rain = 0

Page generated in 0.0995 seconds.